DHK710 ENGM-ZSPD
Flight info
| Callsign | DHK710 |
|---|---|
| Flight time | N/A |
| Altitude | 31000 |
| Route | MASEV DCT DEGAL DCT BAKLA DCT ROGTU DCT OSDIL DCT OTLUD DCT ATLUL DCT KOKAT/K0900F310 M59 ULGUN/K0891F330 M59 NWK T631 SOREB A307 KUMOD B800 ADONI R372 TEPNU A822 LONKA R497 SERNA/K0893S1010 Y520 POLHO W33 NUVPU W52 AGRIV/K0885S1070 W52 MUDAM/K0887S1040 G212 SOTMU W98 ELKUR W40 DOXAB/K0887S1070 W40 YQG/K0896S1040 W142 DALIM/K0893S1070 A593 DPX A470 DALNU W166 ZJ W167 SASAN R343 EKIMU |
| Aircraft | B77L/H-SDE1E2E3FGHIJ2J3J4J5M1RWXY/LB1D1 |
Departure
| Time | N/A |
|---|---|
| Airport | Oslo-Gardermoen International Airport (ENGM) |
Arrival
| Time | 2026-05-04 21:12 |
|---|---|
| Airport | Shanghai Pudong International Airport (ZSPD) |
| Time | Latitude | Longitude | Altitude | Speed | Heading |
|---|---|---|---|---|---|
| 2026-05-04 12:38 | 60.47556 | 15.70242 | 30618 ft | 544 kts | 82° |
| 2026-05-04 12:38 | 60.48170 | 15.77819 | 30619 ft | 544 kts | 83° |
| 2026-05-04 12:39 | 60.49384 | 15.92974 | 30622 ft | 545 kts | 83° |
| 2026-05-04 12:39 | 60.50583 | 16.08152 | 30613 ft | 544 kts | 83° |
| 2026-05-04 12:40 | 60.51758 | 16.23301 | 30609 ft | 543 kts | 83° |
| 2026-05-04 12:40 | 60.52914 | 16.38445 | 30607 ft | 542 kts | 83° |
| 2026-05-04 12:41 | 60.54047 | 16.53459 | 30610 ft | 540 kts | 84° |
| 2026-05-04 12:41 | 60.55165 | 16.68526 | 30599 ft | 538 kts | 84° |
| 2026-05-04 12:42 | 60.56263 | 16.83558 | 30610 ft | 537 kts | 84° |
| 2026-05-04 12:42 | 60.57341 | 16.98564 | 30610 ft | 537 kts | 84° |
| 2026-05-04 12:43 | 60.58403 | 17.13587 | 30610 ft | 537 kts | 84° |
| 2026-05-04 12:43 | 60.59447 | 17.28617 | 30602 ft | 536 kts | 84° |
| 2026-05-04 12:44 | 60.60476 | 17.43665 | 30611 ft | 537 kts | 85° |
| 2026-05-04 12:44 | 60.61454 | 17.58208 | 30617 ft | 537 kts | 85° |
| 2026-05-04 12:45 | 60.62386 | 17.72275 | 30620 ft | 538 kts | 85° |
| 2026-05-04 12:45 | 60.63514 | 17.87312 | 30617 ft | 539 kts | 76° |
| 2026-05-04 12:45 | 60.64828 | 17.94468 | 30625 ft | 540 kts | 63° |
| 2026-05-04 12:46 | 60.66753 | 18.01021 | 30623 ft | 539 kts | 52° |
| 2026-05-04 12:46 | 60.68997 | 18.06370 | 30620 ft | 535 kts | 41° |
| 2026-05-04 12:46 | 60.71646 | 18.11422 | 30687 ft | 535 kts | 40° |
| 2026-05-04 12:47 | 60.77117 | 18.21804 | 30638 ft | 538 kts | 41° |
| 2026-05-04 12:47 | 60.82555 | 18.32391 | 30636 ft | 541 kts | 42° |
| 2026-05-04 12:48 | 60.87967 | 18.43137 | 30633 ft | 542 kts | 42° |
| 2026-05-04 12:48 | 60.93369 | 18.53944 | 30630 ft | 542 kts | 42° |
| 2026-05-04 12:49 | 60.98779 | 18.64805 | 30636 ft | 543 kts | 42° |
| 2026-05-04 12:49 | 61.04176 | 18.75686 | 30637 ft | 543 kts | 43° |
| 2026-05-04 12:50 | 61.09568 | 18.86609 | 30623 ft | 542 kts | 43° |
| 2026-05-04 12:50 | 61.14943 | 18.97553 | 30636 ft | 542 kts | 43° |
| 2026-05-04 12:51 | 61.20301 | 19.08519 | 30658 ft | 542 kts | 43° |
| 2026-05-04 12:51 | 61.25659 | 19.19537 | 30623 ft | 541 kts | 43° |
| 2026-05-04 12:52 | 61.30999 | 19.30572 | 30622 ft | 541 kts | 43° |
| 2026-05-04 12:52 | 61.35519 | 19.43008 | 30643 ft | 541 kts | 64° |
| 2026-05-04 12:53 | 61.37918 | 19.57726 | 30630 ft | 534 kts | 83° |
| 2026-05-04 12:53 | 61.39115 | 19.73025 | 30644 ft | 535 kts | 84° |
| 2026-05-04 12:54 | 61.40356 | 19.88384 | 30641 ft | 538 kts | 83° |
| 2026-05-04 12:54 | 61.41649 | 20.03705 | 30607 ft | 540 kts | 83° |
| 2026-05-04 12:55 | 61.42954 | 20.19146 | 30642 ft | 540 kts | 83° |
| 2026-05-04 12:55 | 61.44236 | 20.34607 | 30645 ft | 540 kts | 83° |
| 2026-05-04 12:56 | 61.45494 | 20.50066 | 30652 ft | 539 kts | 83° |
| 2026-05-04 12:56 | 61.46733 | 20.65516 | 30649 ft | 538 kts | 83° |
| 2026-05-04 12:57 | 61.47954 | 20.80935 | 30653 ft | 537 kts | 84° |
| 2026-05-04 12:57 | 61.49487 | 20.96249 | 30645 ft | 539 kts | 75° |
| 2026-05-04 12:58 | 61.52212 | 21.10903 | 30666 ft | 542 kts | 65° |
| 2026-05-04 12:58 | 61.55526 | 21.25084 | 30665 ft | 542 kts | 65° |
| 2026-05-04 12:59 | 61.58808 | 21.39335 | 30659 ft | 542 kts | 65° |
| 2026-05-04 12:59 | 61.62030 | 21.53664 | 30661 ft | 543 kts | 66° |
| 2026-05-04 13:00 | 61.65230 | 21.68047 | 30661 ft | 543 kts | 66° |
| 2026-05-04 13:00 | 61.68420 | 21.82450 | 30631 ft | 542 kts | 66° |
| 2026-05-04 13:01 | 61.71555 | 21.96892 | 30665 ft | 542 kts | 69° |
| 2026-05-04 13:01 | 61.74002 | 22.11788 | 30659 ft | 541 kts | 74° |
| 2026-05-04 13:02 | 61.76297 | 22.26915 | 30649 ft | 541 kts | 74° |
| 2026-05-04 13:02 | 61.78603 | 22.42029 | 30650 ft | 541 kts | 74° |
| 2026-05-04 13:03 | 61.80928 | 22.57166 | 30648 ft | 541 kts | 74° |
| 2026-05-04 13:03 | 61.82857 | 22.69757 | 30645 ft | 541 kts | 74° |
| 2026-05-04 13:04 | 61.85158 | 22.84909 | 30671 ft | 541 kts | 74° |
| 2026-05-04 13:04 | 61.87441 | 23.00102 | 30649 ft | 542 kts | 75° |
| 2026-05-04 13:05 | 61.89710 | 23.15344 | 30644 ft | 542 kts | 75° |
| 2026-05-04 13:05 | 61.91962 | 23.30602 | 30634 ft | 542 kts | 75° |
| 2026-05-04 13:06 | 61.94198 | 23.45892 | 30635 ft | 542 kts | 75° |
| 2026-05-04 13:06 | 61.96417 | 23.61205 | 30634 ft | 542 kts | 75° |
| 2026-05-04 13:07 | 61.98619 | 23.76534 | 30630 ft | 541 kts | 75° |
| 2026-05-04 13:07 | 62.00804 | 23.91892 | 30635 ft | 543 kts | 76° |
| 2026-05-04 13:08 | 62.02973 | 24.07278 | 30631 ft | 543 kts | 76° |
| 2026-05-04 13:08 | 62.05116 | 24.22622 | 30629 ft | 544 kts | 76° |
| 2026-05-04 13:09 | 62.07257 | 24.38089 | 30634 ft | 544 kts | 76° |
| 2026-05-04 13:09 | 62.09378 | 24.53566 | 30629 ft | 544 kts | 76° |
| 2026-05-04 13:10 | 62.11481 | 24.69049 | 30622 ft | 542 kts | 76° |
| 2026-05-04 13:10 | 62.13563 | 24.84536 | 30644 ft | 542 kts | 77° |
| 2026-05-04 13:11 | 62.15631 | 25.00039 | 30629 ft | 543 kts | 77° |
| 2026-05-04 13:11 | 62.17899 | 25.15475 | 30619 ft | 544 kts | 73° |
| 2026-05-04 13:12 | 62.20360 | 25.30791 | 30631 ft | 544 kts | 73° |
| 2026-05-04 13:12 | 62.22817 | 25.46141 | 30611 ft | 545 kts | 73° |
| 2026-05-04 13:13 | 62.25226 | 25.61531 | 30602 ft | 543 kts | 74° |
| 2026-05-04 13:13 | 62.27596 | 25.76923 | 30608 ft | 543 kts | 74° |
| 2026-05-04 13:14 | 62.29947 | 25.92327 | 30607 ft | 542 kts | 75° |
| 2026-05-04 13:14 | 62.32282 | 26.07743 | 30611 ft | 542 kts | 75° |
| 2026-05-04 13:15 | 62.34598 | 26.23170 | 30629 ft | 542 kts | 75° |
| 2026-05-04 13:15 | 62.36900 | 26.38634 | 30614 ft | 542 kts | 75° |
| 2026-05-04 13:16 | 62.39187 | 26.54138 | 30598 ft | 542 kts | 75° |
| 2026-05-04 13:16 | 62.41436 | 26.69519 | 30631 ft | 542 kts | 75° |
| 2026-05-04 13:17 | 62.43685 | 26.85046 | 30623 ft | 542 kts | 76° |
| 2026-05-04 13:17 | 62.45915 | 27.00587 | 30620 ft | 542 kts | 76° |
| 2026-05-04 13:18 | 62.48133 | 27.16184 | 30622 ft | 542 kts | 76° |
| 2026-05-04 13:18 | 62.50330 | 27.31780 | 30627 ft | 542 kts | 76° |
| 2026-05-04 13:19 | 62.52515 | 27.47434 | 30635 ft | 544 kts | 76° |
| 2026-05-04 13:19 | 62.54688 | 27.63134 | 30613 ft | 544 kts | 76° |
| 2026-05-04 13:20 | 62.56630 | 27.78954 | 30626 ft | 541 kts | 83° |
| 2026-05-04 13:20 | 62.57423 | 27.95105 | 30616 ft | 538 kts | 90° |
| 2026-05-04 13:21 | 62.57976 | 28.11286 | 30631 ft | 538 kts | 90° |
| 2026-05-04 13:21 | 62.58557 | 28.27477 | 30624 ft | 539 kts | 90° |
| 2026-05-04 13:22 | 62.59151 | 28.43685 | 30579 ft | 539 kts | 89° |
| 2026-05-04 13:22 | 62.59734 | 28.59888 | 30629 ft | 539 kts | 89° |
| 2026-05-04 13:23 | 62.60295 | 28.76111 | 30642 ft | 540 kts | 90° |
| 2026-05-04 13:23 | 62.60837 | 28.92414 | 30632 ft | 542 kts | 90° |
| 2026-05-04 13:24 | 62.61356 | 29.08555 | 30653 ft | 543 kts | 90° |
| 2026-05-04 13:24 | 62.61857 | 29.24711 | 30655 ft | 542 kts | 90° |
| 2026-05-04 13:25 | 62.62579 | 29.49204 | 30668 ft | 541 kts | 90° |
| 2026-05-04 13:25 | 62.63031 | 29.65368 | 30659 ft | 543 kts | 90° |
| 2026-05-04 13:26 | 62.63465 | 29.81474 | 30678 ft | 544 kts | 90° |
| 2026-05-04 13:26 | 62.63888 | 29.97920 | 30645 ft | 545 kts | 90° |
| 2026-05-04 13:27 | 62.64293 | 30.14392 | 30655 ft | 545 kts | 91° |
| 2026-05-04 13:27 | 62.64679 | 30.30852 | 30668 ft | 545 kts | 91° |
| 2026-05-04 13:28 | 62.65044 | 30.47311 | 30653 ft | 545 kts | 91° |
| 2026-05-04 13:28 | 62.65389 | 30.63755 | 30649 ft | 544 kts | 91° |
| 2026-05-04 13:29 | 62.65714 | 30.80176 | 30650 ft | 543 kts | 91° |
| 2026-05-04 13:29 | 62.66020 | 30.96565 | 30651 ft | 543 kts | 91° |
| 2026-05-04 13:30 | 62.66305 | 31.12860 | 30626 ft | 542 kts | 91° |
| 2026-05-04 13:30 | 62.66581 | 31.29259 | 30657 ft | 544 kts | 90° |
| 2026-05-04 13:31 | 62.67560 | 31.45634 | 30656 ft | 549 kts | 78° |
| 2026-05-04 13:31 | 62.69575 | 31.61699 | 30683 ft | 551 kts | 75° |
| 2026-05-04 13:32 | 62.71588 | 31.77856 | 30669 ft | 553 kts | 76° |
| 2026-05-04 13:32 | 62.73517 | 31.94076 | 30664 ft | 553 kts | 77° |
| 2026-05-04 13:33 | 62.75414 | 32.10345 | 30618 ft | 552 kts | 77° |
| 2026-05-04 13:33 | 62.77266 | 32.26594 | 30661 ft | 551 kts | 77° |
| 2026-05-04 13:34 | 62.79101 | 32.42860 | 30676 ft | 551 kts | 77° |
| 2026-05-04 13:34 | 62.80923 | 32.59142 | 30667 ft | 553 kts | 77° |
| 2026-05-04 13:35 | 62.83633 | 32.83546 | 30664 ft | 552 kts | 77° |
| 2026-05-04 13:36 | 62.85467 | 32.99863 | 30664 ft | 552 kts | 77° |
| 2026-05-04 13:36 | 62.87285 | 33.16167 | 30641 ft | 551 kts | 76° |
| 2026-05-04 13:37 | 62.89077 | 33.32483 | 30667 ft | 550 kts | 76° |
| 2026-05-04 13:37 | 62.90842 | 33.48790 | 30707 ft | 550 kts | 76° |
| 2026-05-04 13:38 | 62.92591 | 33.65148 | 30678 ft | 550 kts | 77° |
| 2026-05-04 13:38 | 62.94320 | 33.81507 | 30685 ft | 550 kts | 77° |
| 2026-05-04 13:39 | 62.96031 | 33.97889 | 30689 ft | 550 kts | 77° |
| 2026-05-04 13:39 | 62.97722 | 34.14282 | 30693 ft | 550 kts | 77° |
| 2026-05-04 13:40 | 62.99383 | 34.30597 | 30687 ft | 549 kts | 77° |
| 2026-05-04 13:40 | 63.01031 | 34.46983 | 30743 ft | 548 kts | 77° |
| 2026-05-04 13:41 | 63.02665 | 34.63424 | 30703 ft | 549 kts | 77° |
| 2026-05-04 13:41 | 63.04278 | 34.79871 | 30705 ft | 550 kts | 77° |
| 2026-05-04 13:42 | 63.06665 | 35.04619 | 30709 ft | 551 kts | 77° |
| 2026-05-04 13:42 | 63.08234 | 35.21151 | 30706 ft | 551 kts | 77° |
| 2026-05-04 13:43 | 63.09784 | 35.37711 | 30707 ft | 550 kts | 77° |
| 2026-05-04 13:43 | 63.11315 | 35.54289 | 30721 ft | 551 kts | 77° |
| 2026-05-04 13:44 | 63.12828 | 35.70881 | 30721 ft | 551 kts | 77° |
| 2026-05-04 13:44 | 63.14252 | 35.86710 | 30720 ft | 551 kts | 77° |
| 2026-05-04 13:45 | 63.15715 | 36.03347 | 30719 ft | 551 kts | 78° |
| 2026-05-04 13:45 | 63.17158 | 36.20006 | 30722 ft | 551 kts | 78° |
| 2026-05-04 13:46 | 63.18585 | 36.36687 | 30727 ft | 551 kts | 78° |
| 2026-05-04 13:46 | 63.19982 | 36.53262 | 30730 ft | 550 kts | 78° |
| 2026-05-04 13:47 | 63.21377 | 36.70027 | 30722 ft | 549 kts | 78° |
| 2026-05-04 13:47 | 63.22728 | 36.86684 | 30724 ft | 549 kts | 78° |
| 2026-05-04 13:48 | 63.24056 | 37.03341 | 30727 ft | 548 kts | 78° |
| 2026-05-04 13:48 | 63.25369 | 37.20004 | 30732 ft | 548 kts | 78° |
| 2026-05-04 13:49 | 63.26655 | 37.36574 | 30731 ft | 548 kts | 79° |
| 2026-05-04 13:49 | 63.27916 | 37.53293 | 30699 ft | 549 kts | 79° |
| 2026-05-04 13:50 | 63.29155 | 37.70033 | 30733 ft | 549 kts | 78° |
| 2026-05-04 13:50 | 63.30378 | 37.86791 | 30733 ft | 549 kts | 79° |
| 2026-05-04 13:51 | 63.31584 | 38.03576 | 30737 ft | 549 kts | 79° |
| 2026-05-04 13:51 | 63.32769 | 38.20370 | 30737 ft | 549 kts | 79° |
| 2026-05-04 13:52 | 63.34510 | 38.45592 | 30773 ft | 550 kts | 79° |
| 2026-05-04 13:53 | 63.35649 | 38.62456 | 30745 ft | 551 kts | 79° |
| 2026-05-04 13:53 | 63.36770 | 38.79321 | 30738 ft | 550 kts | 79° |
| 2026-05-04 13:54 | 63.38551 | 39.04404 | 30754 ft | 548 kts | 78° |
| 2026-05-04 13:55 | 63.40341 | 39.29574 | 30752 ft | 547 kts | 79° |
| 2026-05-04 13:55 | 63.42057 | 39.54767 | 30766 ft | 548 kts | 79° |
| 2026-05-04 13:56 | 63.43175 | 39.71610 | 30765 ft | 548 kts | 79° |
| 2026-05-04 13:57 | 63.44641 | 39.94040 | 30758 ft | 547 kts | 79° |
| 2026-05-04 13:58 | 63.46786 | 40.27717 | 30789 ft | 546 kts | 79° |
| 2026-05-04 13:58 | 63.48350 | 40.52966 | 30790 ft | 547 kts | 79° |
| 2026-05-04 13:59 | 63.49370 | 40.69857 | 30790 ft | 548 kts | 79° |
| 2026-05-04 14:00 | 63.50863 | 40.95227 | 30789 ft | 548 kts | 79° |
| 2026-05-04 14:00 | 63.52304 | 41.20501 | 30798 ft | 548 kts | 79° |
| 2026-05-04 14:01 | 63.53244 | 41.37444 | 30801 ft | 548 kts | 80° |
| 2026-05-04 14:02 | 63.54620 | 41.62938 | 30799 ft | 551 kts | 80° |
| 2026-05-04 14:02 | 63.55515 | 41.79997 | 30800 ft | 551 kts | 80° |
| 2026-05-04 14:03 | 63.56392 | 41.97105 | 30797 ft | 552 kts | 80° |
| 2026-05-04 14:03 | 63.57249 | 42.14220 | 30773 ft | 551 kts | 80° |
| 2026-05-04 14:04 | 63.58499 | 42.39822 | 30800 ft | 549 kts | 80° |
| 2026-05-04 14:04 | 63.59326 | 42.56883 | 30803 ft | 550 kts | 79° |
| 2026-05-04 14:05 | 63.60542 | 42.82480 | 30811 ft | 549 kts | 80° |
| 2026-05-04 14:06 | 63.61325 | 42.99565 | 30812 ft | 549 kts | 80° |
| 2026-05-04 14:06 | 63.62086 | 43.16668 | 30815 ft | 550 kts | 80° |
| 2026-05-04 14:07 | 63.62827 | 43.33769 | 30784 ft | 549 kts | 80° |
| 2026-05-04 14:07 | 63.63546 | 43.50859 | 30835 ft | 549 kts | 81° |
| 2026-05-04 14:08 | 63.64246 | 43.67961 | 30810 ft | 548 kts | 81° |
| 2026-05-04 14:08 | 63.64924 | 43.85028 | 30820 ft | 547 kts | 81° |
| 2026-05-04 14:09 | 63.65901 | 44.10516 | 30821 ft | 547 kts | 81° |
| 2026-05-04 14:10 | 63.66836 | 44.36132 | 30823 ft | 547 kts | 81° |
| 2026-05-04 14:10 | 63.67433 | 44.53216 | 30827 ft | 547 kts | 82° |
| 2026-05-04 14:11 | 63.68011 | 44.70261 | 30818 ft | 545 kts | 82° |
| 2026-05-04 14:11 | 63.68839 | 44.95725 | 30824 ft | 542 kts | 83° |
| 2026-05-04 14:12 | 63.69366 | 45.12663 | 30830 ft | 541 kts | 83° |
| 2026-05-04 14:13 | 63.70110 | 45.38054 | 30829 ft | 542 kts | 84° |
| 2026-05-04 14:13 | 63.70314 | 45.55083 | 30845 ft | 545 kts | 87° |
| 2026-05-04 14:14 | 63.70385 | 45.72177 | 30822 ft | 544 kts | 87° |
| 2026-05-04 14:14 | 63.70525 | 45.97748 | 30828 ft | 543 kts | 86° |
| 2026-05-04 14:15 | 63.70710 | 46.31758 | 30833 ft | 542 kts | 87° |
| 2026-05-04 14:16 | 63.70789 | 46.57109 | 30840 ft | 541 kts | 87° |
| 2026-05-04 14:17 | 63.70822 | 46.82578 | 30824 ft | 541 kts | 88° |
| 2026-05-04 14:18 | 63.70812 | 47.08011 | 30829 ft | 540 kts | 88° |
| 2026-05-04 14:19 | 63.70729 | 47.41853 | 30840 ft | 539 kts | 88° |
| 2026-05-04 14:19 | 63.70660 | 47.58780 | 30881 ft | 540 kts | 88° |
| 2026-05-04 14:20 | 63.70574 | 47.75728 | 30843 ft | 541 kts | 88° |
| 2026-05-04 14:20 | 63.70505 | 47.92717 | 30813 ft | 542 kts | 88° |
| 2026-05-04 14:21 | 63.70378 | 48.18070 | 30835 ft | 541 kts | 89° |
| 2026-05-04 14:21 | 63.70260 | 48.35036 | 30839 ft | 541 kts | 89° |
| 2026-05-04 14:22 | 63.70126 | 48.51980 | 30836 ft | 541 kts | 89° |
| 2026-05-04 14:22 | 63.69975 | 48.68938 | 30864 ft | 541 kts | 89° |
| 2026-05-04 14:23 | 63.69711 | 48.94431 | 30837 ft | 543 kts | 89° |
| 2026-05-04 14:24 | 63.69510 | 49.11435 | 30815 ft | 542 kts | 90° |
| 2026-05-04 14:24 | 63.69288 | 49.28405 | 30825 ft | 541 kts | 90° |
| 2026-05-04 14:25 | 63.69048 | 49.45320 | 30838 ft | 540 kts | 90° |
| 2026-05-04 14:25 | 63.68652 | 49.70666 | 30882 ft | 539 kts | 90° |
| 2026-05-04 14:26 | 63.68366 | 49.87599 | 30834 ft | 542 kts | 90° |
| 2026-05-04 14:26 | 63.68056 | 50.04470 | 30835 ft | 543 kts | 90° |
| 2026-05-04 14:27 | 63.67722 | 50.21594 | 30797 ft | 544 kts | 91° |
| 2026-05-04 14:27 | 63.67377 | 50.38494 | 30825 ft | 543 kts | 91° |
| 2026-05-04 14:28 | 63.67010 | 50.55484 | 30821 ft | 542 kts | 91° |
| 2026-05-04 14:28 | 63.66624 | 50.72431 | 30824 ft | 542 kts | 91° |
| 2026-05-04 14:29 | 63.65792 | 51.06341 | 30818 ft | 542 kts | 92° |
| 2026-05-04 14:30 | 63.65348 | 51.23286 | 30822 ft | 542 kts | 92° |
| 2026-05-04 14:31 | 63.64642 | 51.48651 | 30818 ft | 541 kts | 92° |
| 2026-05-04 14:32 | 63.63600 | 51.82408 | 30845 ft | 541 kts | 93° |
| 2026-05-04 14:32 | 63.63054 | 51.99288 | 30817 ft | 542 kts | 93° |
| 2026-05-04 14:33 | 63.62492 | 52.16087 | 30813 ft | 542 kts | 93° |
| 2026-05-04 14:33 | 63.61906 | 52.32988 | 30812 ft | 543 kts | 94° |
| 2026-05-04 14:34 | 63.61300 | 52.49900 | 30801 ft | 543 kts | 94° |
| 2026-05-04 14:34 | 63.60673 | 52.66809 | 30807 ft | 543 kts | 94° |
| 2026-05-04 14:35 | 63.60028 | 52.83701 | 30845 ft | 543 kts | 94° |
| 2026-05-04 14:35 | 63.59361 | 53.00638 | 30806 ft | 544 kts | 94° |
| 2026-05-04 14:36 | 63.58673 | 53.17557 | 30800 ft | 544 kts | 95° |
| 2026-05-04 14:36 | 63.57966 | 53.34484 | 30801 ft | 544 kts | 95° |
| 2026-05-04 14:37 | 63.57240 | 53.51387 | 30798 ft | 544 kts | 95° |
| 2026-05-04 14:37 | 63.56496 | 53.68286 | 30793 ft | 543 kts | 95° |
| 2026-05-04 14:38 | 63.55740 | 53.85020 | 30792 ft | 542 kts | 95° |
| 2026-05-04 14:38 | 63.54976 | 54.01828 | 30791 ft | 542 kts | 95° |
| 2026-05-04 14:39 | 63.54201 | 54.18636 | 30791 ft | 542 kts | 96° |
| 2026-05-04 14:39 | 63.53407 | 54.35418 | 30792 ft | 541 kts | 96° |
| 2026-05-04 14:40 | 63.52179 | 54.60531 | 30788 ft | 541 kts | 96° |
| 2026-05-04 14:40 | 63.51334 | 54.77293 | 30764 ft | 540 kts | 96° |
| 2026-05-04 14:41 | 63.50473 | 54.93978 | 30807 ft | 539 kts | 97° |
| 2026-05-04 14:42 | 63.48695 | 55.27334 | 30789 ft | 539 kts | 97° |
| 2026-05-04 14:42 | 63.47777 | 55.43973 | 30787 ft | 539 kts | 97° |
| 2026-05-04 14:43 | 63.46813 | 55.60495 | 30785 ft | 539 kts | 98° |
| 2026-05-04 14:43 | 63.45825 | 55.77124 | 30788 ft | 539 kts | 98° |
| 2026-05-04 14:44 | 63.44828 | 55.93720 | 30811 ft | 539 kts | 98° |
| 2026-05-04 14:44 | 63.43821 | 56.10329 | 30783 ft | 539 kts | 98° |
| 2026-05-04 14:45 | 63.42800 | 56.26923 | 30783 ft | 539 kts | 99° |
| 2026-05-04 14:45 | 63.41762 | 56.43488 | 30778 ft | 539 kts | 99° |
| 2026-05-04 14:46 | 63.40704 | 56.60049 | 30779 ft | 539 kts | 99° |
| 2026-05-04 14:46 | 63.39627 | 56.76584 | 30772 ft | 539 kts | 99° |
| 2026-05-04 14:47 | 63.38530 | 56.93124 | 30772 ft | 539 kts | 99° |
| 2026-05-04 14:47 | 63.37416 | 57.09621 | 30769 ft | 537 kts | 99° |
| 2026-05-04 14:48 | 63.36286 | 57.26063 | 30764 ft | 536 kts | 100° |
| 2026-05-04 14:48 | 63.35141 | 57.42447 | 30767 ft | 535 kts | 100° |
| 2026-05-04 14:49 | 63.33988 | 57.58688 | 30765 ft | 534 kts | 100° |
| 2026-05-04 14:49 | 63.32809 | 57.75012 | 30768 ft | 534 kts | 100° |
| 2026-05-04 14:50 | 63.31602 | 57.91327 | 30762 ft | 535 kts | 101° |
| 2026-05-04 14:50 | 63.30377 | 58.07644 | 30713 ft | 535 kts | 101° |
| 2026-05-04 14:51 | 63.29139 | 58.23926 | 30743 ft | 533 kts | 101° |
| 2026-05-04 14:51 | 63.28092 | 58.37524 | 30743 ft | 533 kts | 101° |
| 2026-05-04 14:52 | 63.26826 | 58.53738 | 30726 ft | 532 kts | 101° |
| 2026-05-04 14:52 | 63.25551 | 58.69777 | 30740 ft | 531 kts | 102° |
| 2026-05-04 14:53 | 63.24253 | 58.85914 | 30733 ft | 531 kts | 102° |
| 2026-05-04 14:53 | 63.22940 | 59.02032 | 30748 ft | 531 kts | 102° |
| 2026-05-04 14:54 | 63.21607 | 59.18160 | 30666 ft | 531 kts | 102° |
| 2026-05-04 14:54 | 63.20264 | 59.34189 | 30709 ft | 528 kts | 102° |
| 2026-05-04 14:55 | 63.18907 | 59.50146 | 30707 ft | 526 kts | 102° |
| 2026-05-04 14:55 | 63.17539 | 59.66049 | 30705 ft | 525 kts | 102° |
| 2026-05-04 14:56 | 63.16154 | 59.81889 | 30702 ft | 525 kts | 103° |
| 2026-05-04 14:56 | 63.14751 | 59.97733 | 30716 ft | 525 kts | 103° |
| 2026-05-04 14:57 | 63.13334 | 60.13593 | 30702 ft | 526 kts | 103° |
| 2026-05-04 14:57 | 63.11896 | 60.29478 | 30666 ft | 527 kts | 103° |
| 2026-05-04 14:58 | 63.10440 | 60.45350 | 30686 ft | 527 kts | 103° |
| 2026-05-04 14:58 | 63.08969 | 60.61174 | 30688 ft | 526 kts | 103° |
| 2026-05-04 14:59 | 63.07489 | 60.76888 | 30682 ft | 526 kts | 103° |
| 2026-05-04 15:00 | 63.05226 | 61.00552 | 30673 ft | 525 kts | 104° |
| 2026-05-04 15:00 | 63.03697 | 61.16280 | 30678 ft | 525 kts | 104° |
| 2026-05-04 15:01 | 63.01374 | 61.39811 | 30662 ft | 523 kts | 105° |
| 2026-05-04 15:01 | 62.99807 | 61.55450 | 30677 ft | 523 kts | 105° |
| 2026-05-04 15:02 | 62.98225 | 61.71048 | 30678 ft | 522 kts | 105° |
| 2026-05-04 15:02 | 62.96626 | 61.86627 | 30682 ft | 522 kts | 105° |
| 2026-05-04 15:03 | 62.95011 | 62.02181 | 30670 ft | 522 kts | 105° |
| 2026-05-04 15:03 | 62.93377 | 62.17726 | 30670 ft | 523 kts | 106° |
| 2026-05-04 15:04 | 62.91778 | 62.32771 | 30668 ft | 523 kts | 106° |
| 2026-05-04 15:04 | 62.90240 | 62.47093 | 30636 ft | 522 kts | 106° |
| 2026-05-04 15:05 | 62.88570 | 62.62473 | 30664 ft | 522 kts | 106° |
| 2026-05-04 15:05 | 62.86873 | 62.77925 | 30670 ft | 522 kts | 106° |
| 2026-05-04 15:06 | 62.85159 | 62.93359 | 30672 ft | 522 kts | 106° |
| 2026-05-04 15:07 | 62.82552 | 63.16518 | 30672 ft | 523 kts | 107° |
| 2026-05-04 15:07 | 62.80791 | 63.31951 | 30665 ft | 523 kts | 107° |
| 2026-05-04 15:08 | 62.79015 | 63.47355 | 30662 ft | 523 kts | 107° |
| 2026-05-04 15:08 | 62.77222 | 63.62737 | 30664 ft | 523 kts | 107° |
| 2026-05-04 15:09 | 62.75411 | 63.78117 | 30659 ft | 523 kts | 107° |
| 2026-05-04 15:09 | 62.73585 | 63.93452 | 30664 ft | 523 kts | 108° |
| 2026-05-04 15:10 | 62.70815 | 64.16430 | 30656 ft | 523 kts | 108° |
| 2026-05-04 15:11 | 62.68020 | 64.39258 | 30653 ft | 522 kts | 108° |
| 2026-05-04 15:11 | 62.66129 | 64.54508 | 30615 ft | 521 kts | 108° |
| 2026-05-04 15:12 | 62.64230 | 64.69674 | 30641 ft | 519 kts | 108° |
| 2026-05-04 15:12 | 62.62321 | 64.84775 | 30647 ft | 517 kts | 108° |
| 2026-05-04 15:13 | 62.60402 | 64.99803 | 30652 ft | 516 kts | 108° |
| 2026-05-04 15:13 | 62.58469 | 65.14796 | 30650 ft | 515 kts | 109° |
| 2026-05-04 15:14 | 62.56524 | 65.29734 | 30660 ft | 515 kts | 109° |
| 2026-05-04 15:14 | 62.54561 | 65.44679 | 30654 ft | 515 kts | 109° |
| 2026-05-04 15:15 | 62.52583 | 65.59595 | 30626 ft | 516 kts | 109° |
| 2026-05-04 15:15 | 62.50588 | 65.74506 | 30651 ft | 515 kts | 109° |
| 2026-05-04 15:16 | 62.47573 | 65.96800 | 30663 ft | 515 kts | 109° |
| 2026-05-04 15:17 | 62.45357 | 66.19546 | 30662 ft | 517 kts | 101° |
| 2026-05-04 15:17 | 62.43619 | 66.42549 | 30668 ft | 517 kts | 102° |
| 2026-05-04 15:18 | 62.42411 | 66.57757 | 30666 ft | 517 kts | 102° |
| 2026-05-04 15:19 | 62.40543 | 66.80661 | 30669 ft | 516 kts | 102° |
| 2026-05-04 15:19 | 62.38650 | 67.03424 | 30667 ft | 513 kts | 102° |
| 2026-05-04 15:20 | 62.37374 | 67.18525 | 30669 ft | 512 kts | 103° |
| 2026-05-04 15:20 | 62.36082 | 67.33590 | 30682 ft | 511 kts | 103° |
| 2026-05-04 15:21 | 62.34776 | 67.48638 | 30683 ft | 511 kts | 103° |
| 2026-05-04 15:22 | 62.32790 | 67.71184 | 30677 ft | 512 kts | 103° |
| 2026-05-04 15:22 | 62.30751 | 67.93751 | 30691 ft | 513 kts | 103° |
| 2026-05-04 15:23 | 62.29382 | 68.08683 | 30692 ft | 512 kts | 103° |
| 2026-05-04 15:23 | 62.27995 | 68.23668 | 30693 ft | 510 kts | 103° |
| 2026-05-04 15:24 | 62.25228 | 68.53024 | 30699 ft | 508 kts | 103° |
| 2026-05-04 15:25 | 62.23802 | 68.67862 | 30703 ft | 507 kts | 104° |
| 2026-05-04 15:26 | 62.21637 | 68.90072 | 30713 ft | 508 kts | 104° |
| 2026-05-04 15:26 | 62.19435 | 69.12263 | 30713 ft | 508 kts | 104° |
| 2026-05-04 15:27 | 62.17206 | 69.34342 | 30715 ft | 507 kts | 104° |
| 2026-05-04 15:28 | 62.14943 | 69.56383 | 30720 ft | 505 kts | 104° |
| 2026-05-04 15:29 | 62.12652 | 69.78316 | 30733 ft | 503 kts | 104° |
| 2026-05-04 15:30 | 62.07181 | 70.29290 | 30746 ft | 504 kts | 105° |
| 2026-05-04 15:31 | 62.04772 | 70.51146 | 30732 ft | 505 kts | 105° |
| 2026-05-04 15:32 | 62.00712 | 70.87267 | 30755 ft | 501 kts | 105° |
| 2026-05-04 15:34 | 61.95972 | 71.22817 | 30765 ft | 499 kts | 109° |
| 2026-05-04 15:34 | 61.92940 | 71.43991 | 30768 ft | 500 kts | 109° |
| 2026-05-04 15:35 | 61.89927 | 71.65200 | 30758 ft | 500 kts | 109° |
| 2026-05-04 15:36 | 61.86890 | 71.86333 | 30772 ft | 499 kts | 109° |
| 2026-05-04 15:36 | 61.84847 | 72.00388 | 30775 ft | 499 kts | 109° |
| 2026-05-04 15:37 | 61.82803 | 72.14335 | 30786 ft | 500 kts | 109° |
| 2026-05-04 15:37 | 61.80731 | 72.28361 | 30783 ft | 500 kts | 109° |
| 2026-05-04 15:38 | 61.78644 | 72.42393 | 30786 ft | 500 kts | 110° |
| 2026-05-04 15:38 | 61.76543 | 72.56409 | 30792 ft | 500 kts | 110° |
| 2026-05-04 15:39 | 61.74436 | 72.70404 | 30787 ft | 501 kts | 110° |
| 2026-05-04 15:40 | 61.71253 | 72.91398 | 30781 ft | 501 kts | 110° |
| 2026-05-04 15:40 | 61.69114 | 73.05361 | 30802 ft | 501 kts | 110° |
| 2026-05-04 15:41 | 61.66963 | 73.19291 | 30804 ft | 500 kts | 110° |
| 2026-05-04 15:41 | 61.64796 | 73.33211 | 30792 ft | 500 kts | 110° |
| 2026-05-04 15:42 | 61.62619 | 73.47087 | 30804 ft | 500 kts | 110° |
| 2026-05-04 15:42 | 61.60427 | 73.60950 | 30802 ft | 500 kts | 110° |
| 2026-05-04 15:43 | 61.58217 | 73.74814 | 30811 ft | 501 kts | 110° |
| 2026-05-04 15:43 | 61.55989 | 73.88689 | 30803 ft | 502 kts | 111° |
| 2026-05-04 15:44 | 61.53748 | 74.02553 | 30815 ft | 502 kts | 111° |
| 2026-05-04 15:44 | 61.51496 | 74.16384 | 30812 ft | 501 kts | 111° |
| 2026-05-04 15:45 | 61.49022 | 74.29892 | 30833 ft | 500 kts | 118° |
| 2026-05-04 15:45 | 61.47448 | 74.36405 | 31069 ft | 502 kts | 119° |
| 2026-05-04 15:45 | 61.45859 | 74.42904 | 31356 ft | 502 kts | 119° |
| 2026-05-04 15:45 | 61.44275 | 74.49407 | 31729 ft | 500 kts | 119° |
| 2026-05-04 15:46 | 61.42708 | 74.55882 | 32125 ft | 498 kts | 119° |
| 2026-05-04 15:46 | 61.41156 | 74.62323 | 32508 ft | 497 kts | 119° |
| 2026-05-04 15:46 | 61.39606 | 74.68762 | 32776 ft | 497 kts | 119° |
| 2026-05-04 15:47 | 61.36995 | 74.79581 | 32852 ft | 498 kts | 119° |
| 2026-05-04 15:47 | 61.33891 | 74.92372 | 32820 ft | 496 kts | 119° |
| 2026-05-04 15:48 | 61.30773 | 75.05145 | 32830 ft | 494 kts | 119° |
| 2026-05-04 15:48 | 61.26058 | 75.24156 | 32830 ft | 493 kts | 120° |
| 2026-05-04 15:49 | 61.22868 | 75.36741 | 32846 ft | 493 kts | 120° |
| 2026-05-04 15:49 | 61.19670 | 75.49334 | 32851 ft | 494 kts | 120° |
| 2026-05-04 15:50 | 61.16459 | 75.61933 | 32837 ft | 495 kts | 120° |
| 2026-05-04 15:50 | 61.13227 | 75.74526 | 32850 ft | 495 kts | 120° |
| 2026-05-04 15:51 | 61.09993 | 75.87071 | 32851 ft | 495 kts | 120° |
| 2026-05-04 15:51 | 61.06750 | 75.99594 | 32860 ft | 494 kts | 120° |
| 2026-05-04 15:52 | 61.03516 | 76.12020 | 32854 ft | 495 kts | 120° |
| 2026-05-04 15:52 | 61.00243 | 76.24525 | 32860 ft | 495 kts | 121° |
| 2026-05-04 15:53 | 60.96597 | 76.36528 | 32853 ft | 494 kts | 127° |
| 2026-05-04 15:53 | 60.92684 | 76.48157 | 32846 ft | 494 kts | 127° |
| 2026-05-04 15:54 | 60.88773 | 76.59777 | 32857 ft | 495 kts | 127° |
| 2026-05-04 15:54 | 60.84887 | 76.71419 | 32864 ft | 495 kts | 127° |
| 2026-05-04 15:55 | 60.81000 | 76.83076 | 32873 ft | 495 kts | 127° |
| 2026-05-04 15:55 | 60.77111 | 76.94688 | 32883 ft | 495 kts | 127° |
| 2026-05-04 15:56 | 60.73203 | 77.06288 | 32903 ft | 495 kts | 127° |
| 2026-05-04 15:56 | 60.69309 | 77.17785 | 32901 ft | 496 kts | 127° |
| 2026-05-04 15:57 | 60.65375 | 77.29338 | 32901 ft | 496 kts | 127° |
| 2026-05-04 15:57 | 60.61419 | 77.40891 | 32907 ft | 497 kts | 127° |
| 2026-05-04 15:58 | 60.57460 | 77.52407 | 32910 ft | 497 kts | 127° |
| 2026-05-04 15:58 | 60.53485 | 77.63916 | 32910 ft | 497 kts | 127° |
| 2026-05-04 15:59 | 60.49505 | 77.75381 | 32914 ft | 497 kts | 127° |
| 2026-05-04 15:59 | 60.45506 | 77.86840 | 32913 ft | 497 kts | 127° |
| 2026-05-04 16:00 | 60.41501 | 77.98262 | 32924 ft | 498 kts | 127° |
| 2026-05-04 16:00 | 60.37474 | 78.09692 | 32928 ft | 499 kts | 127° |
| 2026-05-04 16:01 | 60.33427 | 78.21123 | 32932 ft | 500 kts | 127° |
| 2026-05-04 16:01 | 60.29397 | 78.32448 | 32928 ft | 501 kts | 128° |
| 2026-05-04 16:02 | 60.25326 | 78.43836 | 32931 ft | 501 kts | 128° |
| 2026-05-04 16:03 | 60.19204 | 78.60854 | 32938 ft | 500 kts | 128° |
| 2026-05-04 16:03 | 60.15106 | 78.72175 | 32942 ft | 501 kts | 128° |
| 2026-05-04 16:04 | 60.10996 | 78.83475 | 32950 ft | 502 kts | 128° |
| 2026-05-04 16:04 | 60.04805 | 79.00398 | 32955 ft | 503 kts | 128° |
| 2026-05-04 16:05 | 60.00659 | 79.11661 | 32931 ft | 503 kts | 128° |
| 2026-05-04 16:06 | 59.94423 | 79.28501 | 32961 ft | 502 kts | 128° |
| 2026-05-04 16:07 | 59.86080 | 79.50852 | 32963 ft | 504 kts | 128° |
| 2026-05-04 16:08 | 59.77689 | 79.73107 | 32969 ft | 506 kts | 128° |
| 2026-05-04 16:09 | 59.67087 | 80.00931 | 32980 ft | 506 kts | 128° |
| 2026-05-04 16:10 | 59.58560 | 80.23073 | 32983 ft | 507 kts | 128° |
| 2026-05-04 16:11 | 59.49966 | 80.45183 | 32987 ft | 509 kts | 128° |
| 2026-05-04 16:12 | 59.36775 | 80.77905 | 33011 ft | 509 kts | 133° |
| 2026-05-04 16:13 | 59.27470 | 80.97828 | 33008 ft | 510 kts | 133° |
| 2026-05-04 16:14 | 59.17887 | 81.18351 | 33022 ft | 513 kts | 133° |
| 2026-05-04 16:16 | 59.05823 | 81.43961 | 33020 ft | 516 kts | 133° |
| 2026-05-04 16:17 | 58.93648 | 81.69508 | 33027 ft | 516 kts | 133° |
| 2026-05-04 16:18 | 58.83868 | 81.89830 | 33028 ft | 517 kts | 133° |
| 2026-05-04 16:19 | 58.71573 | 82.15115 | 33035 ft | 517 kts | 133° |
| 2026-05-04 16:20 | 58.59247 | 82.40190 | 33041 ft | 518 kts | 133° |
| 2026-05-04 16:22 | 58.46826 | 82.65185 | 33052 ft | 519 kts | 133° |
| 2026-05-04 16:23 | 58.32141 | 82.95581 | 33063 ft | 519 kts | 124° |
| 2026-05-04 16:25 | 58.21424 | 83.31215 | 33061 ft | 518 kts | 118° |
| 2026-05-04 16:26 | 58.08915 | 83.72567 | 33067 ft | 518 kts | 118° |
| 2026-05-04 16:28 | 57.99893 | 84.01970 | 33075 ft | 518 kts | 118° |
| 2026-05-04 16:29 | 57.87131 | 84.42937 | 33079 ft | 519 kts | 118° |
| 2026-05-04 16:31 | 57.77907 | 84.72110 | 33086 ft | 520 kts | 118° |
| 2026-05-04 16:32 | 57.66756 | 85.06904 | 33089 ft | 521 kts | 118° |
| 2026-05-04 16:33 | 57.59249 | 85.30041 | 33096 ft | 522 kts | 118° |
| 2026-05-04 16:34 | 57.53581 | 85.47362 | 33089 ft | 522 kts | 118° |
| 2026-05-04 16:35 | 57.42181 | 85.81824 | 33145 ft | 522 kts | 118° |
| 2026-05-04 16:36 | 57.36438 | 85.98999 | 33106 ft | 523 kts | 118° |
| 2026-05-04 16:37 | 57.30691 | 86.16063 | 33098 ft | 523 kts | 118° |
| 2026-05-04 16:38 | 57.22951 | 86.38853 | 33104 ft | 523 kts | 118° |
| 2026-05-04 16:39 | 57.13220 | 86.67203 | 33114 ft | 524 kts | 118° |
| 2026-05-04 16:40 | 57.05378 | 86.89809 | 33110 ft | 524 kts | 119° |
| 2026-05-04 16:41 | 56.96192 | 87.16041 | 33130 ft | 525 kts | 118° |
| 2026-05-04 16:43 | 56.86279 | 87.44090 | 33133 ft | 525 kts | 119° |
| 2026-05-04 16:43 | 56.80297 | 87.60862 | 33123 ft | 525 kts | 119° |
| 2026-05-04 16:45 | 56.68278 | 87.94209 | 33141 ft | 528 kts | 119° |
| 2026-05-04 16:46 | 56.58132 | 88.22004 | 33151 ft | 529 kts | 120° |
| 2026-05-04 16:47 | 56.49943 | 88.44213 | 33156 ft | 531 kts | 120° |
| 2026-05-04 16:48 | 56.41695 | 88.66376 | 33151 ft | 531 kts | 120° |
| 2026-05-04 16:49 | 56.33458 | 88.88503 | 33187 ft | 530 kts | 117° |
| 2026-05-04 16:50 | 56.27341 | 89.12261 | 33157 ft | 524 kts | 108° |
| 2026-05-04 16:51 | 56.22927 | 89.30233 | 33148 ft | 524 kts | 109° |
| 2026-05-04 16:52 | 56.16949 | 89.54100 | 33154 ft | 524 kts | 109° |
| 2026-05-04 16:53 | 56.12441 | 89.71949 | 33160 ft | 524 kts | 109° |
| 2026-05-04 16:54 | 56.06390 | 89.95690 | 33162 ft | 524 kts | 110° |
| 2026-05-04 16:55 | 55.97211 | 90.31225 | 33165 ft | 525 kts | 110° |
| 2026-05-04 16:56 | 55.89478 | 90.60729 | 33200 ft | 526 kts | 110° |
| 2026-05-04 16:57 | 55.84818 | 90.78329 | 33167 ft | 527 kts | 110° |
| 2026-05-04 16:58 | 55.78528 | 91.01865 | 33165 ft | 527 kts | 110° |
| 2026-05-04 17:00 | 55.68999 | 91.37067 | 33164 ft | 529 kts | 111° |
| 2026-05-04 17:01 | 55.60960 | 91.66343 | 33179 ft | 529 kts | 111° |
| 2026-05-04 17:02 | 55.54479 | 91.89685 | 33183 ft | 531 kts | 111° |
| 2026-05-04 17:03 | 55.49561 | 92.07239 | 33154 ft | 532 kts | 111° |
| 2026-05-04 17:03 | 55.44624 | 92.24727 | 33199 ft | 531 kts | 112° |
| 2026-05-04 17:04 | 55.38008 | 92.47974 | 33170 ft | 530 kts | 112° |
| 2026-05-04 17:05 | 55.31648 | 92.71171 | 33168 ft | 528 kts | 111° |
| 2026-05-04 17:06 | 55.26857 | 92.88557 | 33175 ft | 528 kts | 112° |
| 2026-05-04 17:07 | 55.22548 | 93.04013 | 33149 ft | 527 kts | 112° |
| 2026-05-04 17:07 | 55.18800 | 93.17399 | 33153 ft | 527 kts | 112° |
| 2026-05-04 17:08 | 55.13937 | 93.34667 | 33192 ft | 528 kts | 113° |
| 2026-05-04 17:09 | 55.10704 | 93.46188 | 33191 ft | 527 kts | 110° |
| 2026-05-04 17:09 | 55.08312 | 93.58193 | 33180 ft | 521 kts | 100° |
| 2026-05-04 17:10 | 55.05314 | 93.89156 | 33197 ft | 518 kts | 95° |
| 2026-05-04 17:11 | 55.04119 | 94.01551 | 33182 ft | 518 kts | 96° |
| 2026-05-04 17:12 | 55.02290 | 94.20019 | 33176 ft | 517 kts | 96° |
| 2026-05-04 17:13 | 54.99184 | 94.50839 | 33190 ft | 517 kts | 96° |
| 2026-05-04 17:14 | 54.96639 | 94.75484 | 33171 ft | 517 kts | 97° |
| 2026-05-04 17:15 | 54.94700 | 94.93930 | 33187 ft | 517 kts | 97° |
| 2026-05-04 17:16 | 54.92069 | 95.18525 | 33189 ft | 517 kts | 97° |
| 2026-05-04 17:17 | 54.89387 | 95.43099 | 33203 ft | 518 kts | 97° |
| 2026-05-04 17:18 | 54.86663 | 95.67563 | 33165 ft | 518 kts | 98° |
| 2026-05-04 17:19 | 54.83880 | 95.92092 | 33165 ft | 518 kts | 98° |
| 2026-05-04 17:20 | 54.81048 | 96.16578 | 33172 ft | 518 kts | 99° |
| 2026-05-04 17:20 | 54.78896 | 96.34897 | 33168 ft | 517 kts | 99° |
| 2026-05-04 17:21 | 54.75977 | 96.59284 | 33181 ft | 518 kts | 101° |
| 2026-05-04 17:22 | 54.73692 | 96.71117 | 33170 ft | 520 kts | 112° |
| 2026-05-04 17:23 | 54.66805 | 96.93160 | 33166 ft | 521 kts | 117° |
| 2026-05-04 17:24 | 54.61608 | 97.09566 | 33164 ft | 522 kts | 117° |
| 2026-05-04 17:25 | 54.54657 | 97.31484 | 33165 ft | 520 kts | 118° |
| 2026-05-04 17:26 | 54.47674 | 97.53279 | 33188 ft | 520 kts | 118° |
| 2026-05-04 17:27 | 54.38857 | 97.80525 | 33166 ft | 523 kts | 118° |
| 2026-05-04 17:28 | 54.31747 | 98.02303 | 33176 ft | 524 kts | 118° |
| 2026-05-04 17:29 | 54.21057 | 98.34884 | 33153 ft | 525 kts | 119° |
| 2026-05-04 17:31 | 54.12038 | 98.62026 | 33153 ft | 527 kts | 119° |
| 2026-05-04 17:32 | 54.02929 | 98.89150 | 33146 ft | 528 kts | 120° |
| 2026-05-04 17:33 | 53.95598 | 99.10743 | 33146 ft | 527 kts | 120° |
| 2026-05-04 17:34 | 53.88262 | 99.32184 | 33116 ft | 526 kts | 120° |
| 2026-05-04 17:35 | 53.79019 | 99.58936 | 33142 ft | 527 kts | 120° |
| 2026-05-04 17:36 | 53.75297 | 99.69625 | 33145 ft | 528 kts | 120° |
| 2026-05-04 17:36 | 53.71558 | 99.80321 | 33141 ft | 528 kts | 121° |
| 2026-05-04 17:37 | 53.67812 | 99.90988 | 33140 ft | 529 kts | 121° |
| 2026-05-04 17:37 | 53.64054 | 100.01641 | 33132 ft | 529 kts | 121° |
| 2026-05-04 17:38 | 53.60288 | 100.12273 | 33136 ft | 529 kts | 121° |
| 2026-05-04 17:38 | 53.57149 | 100.21104 | 33139 ft | 529 kts | 121° |
| 2026-05-04 17:39 | 53.50856 | 100.38706 | 33162 ft | 528 kts | 121° |
| 2026-05-04 17:39 | 53.47677 | 100.47552 | 33147 ft | 528 kts | 121° |
| 2026-05-04 17:40 | 53.43258 | 100.59796 | 33140 ft | 528 kts | 121° |
| 2026-05-04 17:40 | 53.40063 | 100.68612 | 33136 ft | 527 kts | 121° |
| 2026-05-04 17:41 | 53.36249 | 100.79098 | 33130 ft | 527 kts | 122° |
| 2026-05-04 17:41 | 53.32454 | 100.89487 | 33136 ft | 527 kts | 122° |
| 2026-05-04 17:42 | 53.28620 | 100.99946 | 33125 ft | 527 kts | 122° |
| 2026-05-04 17:42 | 53.24772 | 101.10372 | 33125 ft | 528 kts | 122° |
| 2026-05-04 17:43 | 53.20912 | 101.20786 | 33109 ft | 528 kts | 122° |
| 2026-05-04 17:43 | 53.17037 | 101.31202 | 33127 ft | 528 kts | 123° |
| 2026-05-04 17:44 | 53.13157 | 101.41595 | 33119 ft | 529 kts | 123° |
| 2026-05-04 17:44 | 53.09252 | 101.52011 | 33113 ft | 530 kts | 123° |
| 2026-05-04 17:45 | 53.05337 | 101.62409 | 33113 ft | 531 kts | 123° |
| 2026-05-04 17:45 | 53.01411 | 101.72794 | 33112 ft | 531 kts | 123° |
| 2026-05-04 17:46 | 52.97495 | 101.83112 | 33106 ft | 532 kts | 123° |
| 2026-05-04 17:46 | 52.93543 | 101.93480 | 33110 ft | 532 kts | 123° |
| 2026-05-04 17:47 | 52.89582 | 102.03830 | 33106 ft | 532 kts | 123° |
| 2026-05-04 17:47 | 52.85612 | 102.14162 | 33101 ft | 531 kts | 124° |
| 2026-05-04 17:48 | 52.81634 | 102.24470 | 33096 ft | 532 kts | 124° |
| 2026-05-04 17:48 | 52.77645 | 102.34765 | 33094 ft | 532 kts | 124° |
| 2026-05-04 17:49 | 52.73644 | 102.45050 | 33089 ft | 533 kts | 124° |
| 2026-05-04 17:49 | 52.69628 | 102.55332 | 33076 ft | 533 kts | 124° |
| 2026-05-04 17:50 | 52.65604 | 102.65593 | 33084 ft | 533 kts | 125° |
| 2026-05-04 17:50 | 52.61599 | 102.75766 | 33071 ft | 533 kts | 125° |
| 2026-05-04 17:51 | 52.57554 | 102.85998 | 33071 ft | 534 kts | 125° |
| 2026-05-04 17:51 | 52.53499 | 102.96216 | 33033 ft | 534 kts | 125° |
| 2026-05-04 17:52 | 52.49438 | 103.06412 | 33064 ft | 534 kts | 126° |
| 2026-05-04 17:52 | 52.45342 | 103.16582 | 33057 ft | 534 kts | 128° |
| 2026-05-04 17:53 | 52.40560 | 103.25812 | 33060 ft | 530 kts | 139° |
| 2026-05-04 17:53 | 52.35300 | 103.34289 | 33060 ft | 531 kts | 139° |
| 2026-05-04 17:54 | 52.30062 | 103.42816 | 33045 ft | 532 kts | 139° |
| 2026-05-04 17:54 | 52.24837 | 103.51390 | 33049 ft | 533 kts | 139° |
| 2026-05-04 17:55 | 52.19635 | 103.59915 | 33038 ft | 534 kts | 139° |
| 2026-05-04 17:55 | 52.14377 | 103.68490 | 33042 ft | 536 kts | 139° |
| 2026-05-04 17:56 | 52.09099 | 103.77063 | 33037 ft | 537 kts | 139° |
| 2026-05-04 17:56 | 52.03807 | 103.85629 | 33033 ft | 537 kts | 139° |
| 2026-05-04 17:57 | 51.98501 | 103.94191 | 33028 ft | 538 kts | 139° |
| 2026-05-04 17:57 | 51.93167 | 104.02718 | 33015 ft | 538 kts | 140° |
| 2026-05-04 17:58 | 51.87766 | 104.11084 | 33028 ft | 537 kts | 141° |
| 2026-05-04 17:58 | 51.82345 | 104.19418 | 33022 ft | 538 kts | 141° |
| 2026-05-04 17:59 | 51.76926 | 104.27763 | 33003 ft | 539 kts | 141° |
| 2026-05-04 18:00 | 51.68787 | 104.40270 | 33019 ft | 539 kts | 141° |
| 2026-05-04 18:00 | 51.63390 | 104.48526 | 33023 ft | 539 kts | 141° |
| 2026-05-04 18:01 | 51.57946 | 104.56826 | 33017 ft | 539 kts | 142° |
| 2026-05-04 18:01 | 51.52524 | 104.65168 | 33021 ft | 540 kts | 141° |
| 2026-05-04 18:02 | 51.44410 | 104.77751 | 33029 ft | 542 kts | 141° |
| 2026-05-04 18:02 | 51.38972 | 104.86126 | 33037 ft | 543 kts | 141° |
| 2026-05-04 18:03 | 51.33517 | 104.94487 | 33029 ft | 542 kts | 141° |
| 2026-05-04 18:03 | 51.28071 | 105.02810 | 33017 ft | 541 kts | 141° |
| 2026-05-04 18:04 | 51.22629 | 105.11098 | 33005 ft | 541 kts | 142° |
| 2026-05-04 18:05 | 51.14474 | 105.23495 | 32991 ft | 540 kts | 141° |
| 2026-05-04 18:05 | 51.09036 | 105.31734 | 32998 ft | 540 kts | 142° |
| 2026-05-04 18:06 | 51.00911 | 105.43987 | 32949 ft | 539 kts | 142° |
| 2026-05-04 18:06 | 50.95433 | 105.52213 | 32968 ft | 539 kts | 142° |
| 2026-05-04 18:07 | 50.90009 | 105.60330 | 32977 ft | 540 kts | 142° |
| 2026-05-04 18:07 | 50.84535 | 105.68498 | 32947 ft | 541 kts | 142° |
| 2026-05-04 18:08 | 50.79051 | 105.76651 | 32952 ft | 541 kts | 142° |
| 2026-05-04 18:08 | 50.73552 | 105.84749 | 32958 ft | 540 kts | 143° |
| 2026-05-04 18:09 | 50.62540 | 106.00869 | 32948 ft | 540 kts | 143° |
| 2026-05-04 18:10 | 50.57030 | 106.08905 | 32944 ft | 539 kts | 144° |
| 2026-05-04 18:10 | 50.51527 | 106.16905 | 32940 ft | 539 kts | 144° |
| 2026-05-04 18:11 | 50.46024 | 106.24877 | 32937 ft | 538 kts | 144° |
| 2026-05-04 18:11 | 50.40513 | 106.32834 | 32932 ft | 538 kts | 144° |
| 2026-05-04 18:12 | 50.35012 | 106.40753 | 32918 ft | 537 kts | 145° |
| 2026-05-04 18:12 | 50.29504 | 106.48651 | 32923 ft | 536 kts | 145° |
| 2026-05-04 18:13 | 50.24023 | 106.56419 | 32932 ft | 536 kts | 145° |
| 2026-05-04 18:14 | 50.15721 | 106.68101 | 32925 ft | 536 kts | 145° |
| 2026-05-04 18:14 | 50.10189 | 106.75868 | 32901 ft | 535 kts | 146° |
| 2026-05-04 18:15 | 49.99115 | 106.91349 | 32920 ft | 536 kts | 146° |
| 2026-05-04 18:16 | 49.93562 | 106.99073 | 32915 ft | 536 kts | 147° |
| 2026-05-04 18:16 | 49.88004 | 107.06781 | 32911 ft | 536 kts | 147° |
| 2026-05-04 18:17 | 49.79657 | 107.18312 | 32878 ft | 535 kts | 147° |
| 2026-05-04 18:18 | 49.71346 | 107.29736 | 32908 ft | 535 kts | 147° |
| 2026-05-04 18:18 | 49.65777 | 107.37359 | 32915 ft | 535 kts | 147° |
| 2026-05-04 18:19 | 49.57402 | 107.48779 | 32903 ft | 536 kts | 147° |
| 2026-05-04 18:19 | 49.51803 | 107.56382 | 32871 ft | 536 kts | 147° |
| 2026-05-04 18:20 | 49.46216 | 107.63951 | 32879 ft | 535 kts | 147° |
| 2026-05-04 18:20 | 49.40624 | 107.71498 | 32892 ft | 535 kts | 147° |
| 2026-05-04 18:21 | 49.35025 | 107.79030 | 32882 ft | 535 kts | 147° |
| 2026-05-04 18:21 | 49.29470 | 107.86480 | 32888 ft | 534 kts | 147° |
| 2026-05-04 18:22 | 49.23879 | 107.93955 | 32823 ft | 534 kts | 147° |
| 2026-05-04 18:22 | 49.18290 | 108.01406 | 32868 ft | 532 kts | 147° |
| 2026-05-04 18:23 | 49.12712 | 108.08818 | 32867 ft | 531 kts | 147° |
| 2026-05-04 18:23 | 49.07134 | 108.16206 | 32882 ft | 531 kts | 147° |
| 2026-05-04 18:24 | 49.01548 | 108.23582 | 32876 ft | 531 kts | 147° |
| 2026-05-04 18:24 | 48.95960 | 108.30935 | 32860 ft | 531 kts | 147° |
| 2026-05-04 18:25 | 48.90367 | 108.38277 | 32857 ft | 530 kts | 147° |
| 2026-05-04 18:25 | 48.84775 | 108.45594 | 32862 ft | 531 kts | 147° |
| 2026-05-04 18:26 | 48.79175 | 108.52898 | 32852 ft | 531 kts | 147° |
| 2026-05-04 18:26 | 48.73564 | 108.60194 | 32846 ft | 532 kts | 147° |
| 2026-05-04 18:27 | 48.67980 | 108.67431 | 32863 ft | 532 kts | 147° |
| 2026-05-04 18:27 | 48.62361 | 108.74695 | 32830 ft | 531 kts | 147° |
| 2026-05-04 18:28 | 48.56740 | 108.81940 | 32821 ft | 531 kts | 147° |
| 2026-05-04 18:28 | 48.51122 | 108.89157 | 32833 ft | 531 kts | 147° |
| 2026-05-04 18:29 | 48.45494 | 108.96367 | 32824 ft | 531 kts | 147° |
| 2026-05-04 18:29 | 48.39866 | 109.03553 | 32827 ft | 531 kts | 147° |
| 2026-05-04 18:30 | 48.31411 | 109.14311 | 32825 ft | 530 kts | 147° |
| 2026-05-04 18:31 | 48.25783 | 109.21443 | 32807 ft | 529 kts | 147° |
| 2026-05-04 18:31 | 48.20156 | 109.28553 | 32824 ft | 529 kts | 147° |
| 2026-05-04 18:32 | 48.14520 | 109.35653 | 32817 ft | 529 kts | 147° |
| 2026-05-04 18:32 | 48.08917 | 109.42692 | 32812 ft | 529 kts | 147° |
| 2026-05-04 18:33 | 48.03273 | 109.49762 | 32804 ft | 530 kts | 147° |
| 2026-05-04 18:33 | 47.97611 | 109.56833 | 32803 ft | 532 kts | 147° |
| 2026-05-04 18:34 | 47.91921 | 109.63922 | 32807 ft | 534 kts | 147° |
| 2026-05-04 18:34 | 47.86213 | 109.71009 | 32800 ft | 535 kts | 147° |
| 2026-05-04 18:35 | 47.80479 | 109.78097 | 32797 ft | 536 kts | 147° |
| 2026-05-04 18:35 | 47.74738 | 109.85175 | 32797 ft | 535 kts | 146° |
| 2026-05-04 18:36 | 47.69009 | 109.92222 | 32797 ft | 534 kts | 146° |
| 2026-05-04 18:36 | 47.63280 | 109.99250 | 32795 ft | 534 kts | 147° |
| 2026-05-04 18:37 | 47.58522 | 110.05069 | 32794 ft | 533 kts | 147° |
| 2026-05-04 18:37 | 47.52805 | 110.12044 | 32789 ft | 532 kts | 147° |
| 2026-05-04 18:38 | 47.47104 | 110.18979 | 32795 ft | 530 kts | 147° |
| 2026-05-04 18:38 | 47.41406 | 110.25889 | 32790 ft | 529 kts | 147° |
| 2026-05-04 18:39 | 47.35718 | 110.32767 | 32793 ft | 528 kts | 147° |
| 2026-05-04 18:39 | 47.30034 | 110.39620 | 32797 ft | 528 kts | 147° |
| 2026-05-04 18:40 | 47.24348 | 110.46457 | 32794 ft | 527 kts | 147° |
| 2026-05-04 18:40 | 47.18674 | 110.53261 | 32786 ft | 525 kts | 147° |
| 2026-05-04 18:41 | 47.13006 | 110.60037 | 32794 ft | 525 kts | 147° |
| 2026-05-04 18:41 | 47.07343 | 110.66787 | 32777 ft | 524 kts | 147° |
| 2026-05-04 18:42 | 47.01677 | 110.73522 | 32783 ft | 524 kts | 147° |
| 2026-05-04 18:42 | 46.96044 | 110.80200 | 32783 ft | 524 kts | 147° |
| 2026-05-04 18:43 | 46.90376 | 110.86900 | 32786 ft | 523 kts | 147° |
| 2026-05-04 18:43 | 46.84708 | 110.93581 | 32765 ft | 524 kts | 147° |
| 2026-05-04 18:44 | 46.79034 | 111.00251 | 32770 ft | 524 kts | 147° |
| 2026-05-04 18:44 | 46.73354 | 111.06909 | 32756 ft | 524 kts | 147° |
| 2026-05-04 18:45 | 46.67660 | 111.13566 | 32753 ft | 524 kts | 147° |
| 2026-05-04 18:45 | 46.61969 | 111.20200 | 32735 ft | 524 kts | 147° |
| 2026-05-04 18:46 | 46.56271 | 111.26826 | 32736 ft | 524 kts | 147° |
| 2026-05-04 18:46 | 46.50609 | 111.33389 | 32730 ft | 525 kts | 147° |
| 2026-05-04 18:47 | 46.44902 | 111.39988 | 32723 ft | 525 kts | 147° |
| 2026-05-04 18:47 | 46.39176 | 111.46588 | 32710 ft | 526 kts | 147° |
| 2026-05-04 18:48 | 46.33450 | 111.53171 | 32699 ft | 526 kts | 147° |
| 2026-05-04 18:48 | 46.27712 | 111.59750 | 32700 ft | 527 kts | 147° |
| 2026-05-04 18:49 | 46.21958 | 111.66329 | 32702 ft | 528 kts | 147° |
| 2026-05-04 18:49 | 46.16183 | 111.72914 | 32683 ft | 530 kts | 147° |
| 2026-05-04 18:50 | 46.10396 | 111.79496 | 32652 ft | 530 kts | 147° |
| 2026-05-04 18:50 | 46.04598 | 111.86072 | 32672 ft | 530 kts | 147° |
| 2026-05-04 18:51 | 45.98806 | 111.92623 | 32656 ft | 530 kts | 147° |
| 2026-05-04 18:51 | 45.93009 | 111.99161 | 32664 ft | 529 kts | 147° |
| 2026-05-04 18:52 | 45.87220 | 112.05673 | 32649 ft | 529 kts | 147° |
| 2026-05-04 18:52 | 45.81461 | 112.12133 | 32622 ft | 528 kts | 147° |
| 2026-05-04 18:53 | 45.75681 | 112.18599 | 32618 ft | 527 kts | 147° |
| 2026-05-04 18:53 | 45.69898 | 112.25052 | 32629 ft | 527 kts | 147° |
| 2026-05-04 18:54 | 45.64115 | 112.31485 | 32610 ft | 526 kts | 147° |
| 2026-05-04 18:54 | 45.58337 | 112.37897 | 32623 ft | 526 kts | 147° |
| 2026-05-04 18:55 | 45.52550 | 112.44301 | 32603 ft | 525 kts | 147° |
| 2026-05-04 18:55 | 45.43887 | 112.53858 | 32601 ft | 525 kts | 147° |
| 2026-05-04 18:56 | 45.38110 | 112.60208 | 32597 ft | 525 kts | 147° |
| 2026-05-04 18:56 | 45.32323 | 112.66554 | 32592 ft | 525 kts | 147° |
| 2026-05-04 18:57 | 45.26533 | 112.72885 | 32579 ft | 525 kts | 147° |
| 2026-05-04 18:57 | 45.20749 | 112.79194 | 32580 ft | 524 kts | 147° |
| 2026-05-04 18:58 | 45.14961 | 112.85491 | 32586 ft | 524 kts | 147° |
| 2026-05-04 18:58 | 45.09211 | 112.91730 | 32571 ft | 524 kts | 147° |
| 2026-05-04 18:59 | 45.03426 | 112.97990 | 32579 ft | 524 kts | 147° |
| 2026-05-04 18:59 | 44.97635 | 113.04242 | 32566 ft | 523 kts | 147° |
| 2026-05-04 19:00 | 44.91856 | 113.10465 | 32561 ft | 522 kts | 147° |
| 2026-05-04 19:00 | 44.86088 | 113.16661 | 32558 ft | 521 kts | 147° |
| 2026-05-04 19:01 | 44.80494 | 113.23175 | 32549 ft | 527 kts | 136° |
| 2026-05-04 19:01 | 44.76187 | 113.31571 | 32557 ft | 533 kts | 120° |
| 2026-05-04 19:02 | 44.73220 | 113.41164 | 32546 ft | 535 kts | 114° |
| 2026-05-04 19:02 | 44.70369 | 113.50859 | 32776 ft | 539 kts | 114° |
| 2026-05-04 19:03 | 44.68919 | 113.55698 | 33196 ft | 537 kts | 115° |
| 2026-05-04 19:03 | 44.67476 | 113.60452 | 33610 ft | 535 kts | 115° |
| 2026-05-04 19:03 | 44.66011 | 113.65234 | 33980 ft | 533 kts | 115° |
| 2026-05-04 19:03 | 44.64540 | 113.70006 | 34318 ft | 532 kts | 115° |
| 2026-05-04 19:04 | 44.63064 | 113.74773 | 34485 ft | 533 kts | 115° |
| 2026-05-04 19:04 | 44.61578 | 113.79564 | 34537 ft | 536 kts | 115° |
| 2026-05-04 19:04 | 44.58607 | 113.89131 | 34561 ft | 534 kts | 115° |
| 2026-05-04 19:05 | 44.55646 | 113.98646 | 34572 ft | 531 kts | 115° |
| 2026-05-04 19:05 | 44.52689 | 114.08115 | 34570 ft | 529 kts | 115° |
| 2026-05-04 19:06 | 44.49729 | 114.17554 | 34577 ft | 529 kts | 115° |
| 2026-05-04 19:06 | 44.46761 | 114.26988 | 34579 ft | 530 kts | 115° |
| 2026-05-04 19:07 | 44.43778 | 114.36431 | 34579 ft | 531 kts | 115° |
| 2026-05-04 19:07 | 44.40798 | 114.45833 | 34584 ft | 533 kts | 115° |
| 2026-05-04 19:08 | 44.37783 | 114.55312 | 34591 ft | 534 kts | 115° |
| 2026-05-04 19:08 | 44.34754 | 114.64798 | 34590 ft | 535 kts | 115° |
| 2026-05-04 19:09 | 44.31714 | 114.74286 | 34590 ft | 535 kts | 115° |
| 2026-05-04 19:09 | 44.28663 | 114.83775 | 34594 ft | 535 kts | 115° |
| 2026-05-04 19:10 | 44.25607 | 114.93243 | 34593 ft | 535 kts | 115° |
| 2026-05-04 19:10 | 44.22548 | 115.02688 | 34592 ft | 534 kts | 115° |
| 2026-05-04 19:11 | 44.19489 | 115.12099 | 34597 ft | 533 kts | 115° |
| 2026-05-04 19:11 | 44.16445 | 115.21430 | 34589 ft | 532 kts | 115° |
| 2026-05-04 19:12 | 44.11850 | 115.35454 | 34589 ft | 530 kts | 115° |
| 2026-05-04 19:13 | 44.08785 | 115.44768 | 34592 ft | 529 kts | 115° |
| 2026-05-04 19:13 | 44.05712 | 115.54071 | 34585 ft | 529 kts | 115° |
| 2026-05-04 19:14 | 44.02635 | 115.63358 | 34592 ft | 529 kts | 115° |
| 2026-05-04 19:14 | 43.99550 | 115.72635 | 34588 ft | 529 kts | 115° |
| 2026-05-04 19:15 | 43.96456 | 115.81914 | 34568 ft | 529 kts | 115° |
| 2026-05-04 19:15 | 43.93185 | 115.91024 | 34547 ft | 525 kts | 127° |
| 2026-05-04 19:15 | 43.90725 | 115.94692 | 34601 ft | 518 kts | 145° |
| 2026-05-04 19:16 | 43.87708 | 115.97369 | 34579 ft | 513 kts | 159° |
| 2026-05-04 19:16 | 43.84378 | 115.99017 | 34576 ft | 506 kts | 173° |
| 2026-05-04 19:16 | 43.80920 | 115.99903 | 34611 ft | 506 kts | 175° |
| 2026-05-04 19:17 | 43.73987 | 116.01685 | 34586 ft | 513 kts | 174° |
| 2026-05-04 19:17 | 43.67018 | 116.03611 | 34580 ft | 506 kts | 173° |
| 2026-05-04 19:18 | 43.60157 | 116.05559 | 34603 ft | 503 kts | 173° |
| 2026-05-04 19:18 | 43.53299 | 116.07497 | 34610 ft | 503 kts | 173° |
| 2026-05-04 19:19 | 43.46443 | 116.09425 | 34604 ft | 503 kts | 173° |
| 2026-05-04 19:19 | 43.39577 | 116.11349 | 34630 ft | 503 kts | 173° |
| 2026-05-04 19:20 | 43.32714 | 116.13270 | 34625 ft | 504 kts | 173° |
| 2026-05-04 19:20 | 43.25842 | 116.15189 | 34620 ft | 504 kts | 173° |
| 2026-05-04 19:21 | 43.18965 | 116.17105 | 34649 ft | 504 kts | 173° |
| 2026-05-04 19:21 | 43.12212 | 116.19557 | 34650 ft | 511 kts | 161° |
| 2026-05-04 19:22 | 43.05981 | 116.24321 | 34667 ft | 518 kts | 145° |
| 2026-05-04 19:22 | 43.00382 | 116.30535 | 34677 ft | 519 kts | 142° |
| 2026-05-04 19:23 | 42.94807 | 116.36794 | 34675 ft | 519 kts | 143° |
| 2026-05-04 19:23 | 42.89191 | 116.42982 | 34690 ft | 519 kts | 143° |
| 2026-05-04 19:24 | 42.83559 | 116.49118 | 34693 ft | 518 kts | 143° |
| 2026-05-04 19:24 | 42.77923 | 116.55237 | 34701 ft | 518 kts | 143° |
| 2026-05-04 19:25 | 42.72284 | 116.61351 | 34706 ft | 518 kts | 143° |
| 2026-05-04 19:25 | 42.66654 | 116.67444 | 34724 ft | 517 kts | 143° |
| 2026-05-04 19:26 | 42.61022 | 116.73525 | 34738 ft | 517 kts | 143° |
| 2026-05-04 19:26 | 42.55390 | 116.79592 | 34751 ft | 517 kts | 143° |
| 2026-05-04 19:27 | 42.49758 | 116.85644 | 34736 ft | 516 kts | 143° |
| 2026-05-04 19:27 | 42.44123 | 116.91685 | 34761 ft | 516 kts | 142° |
| 2026-05-04 19:28 | 42.38540 | 116.97658 | 34825 ft | 515 kts | 142° |
| 2026-05-04 19:28 | 42.32910 | 117.03667 | 34880 ft | 517 kts | 142° |
| 2026-05-04 19:29 | 42.27253 | 117.09698 | 34890 ft | 518 kts | 142° |
| 2026-05-04 19:29 | 42.21597 | 117.15721 | 34892 ft | 519 kts | 142° |
| 2026-05-04 19:30 | 42.15900 | 117.21698 | 34906 ft | 518 kts | 147° |
| 2026-05-04 19:30 | 42.09463 | 117.25887 | 34933 ft | 513 kts | 165° |
| 2026-05-04 19:31 | 42.02492 | 117.27604 | 34931 ft | 509 kts | 176° |
| 2026-05-04 19:31 | 41.95444 | 117.28642 | 34928 ft | 510 kts | 175° |
| 2026-05-04 19:32 | 41.88408 | 117.29851 | 34937 ft | 510 kts | 175° |
| 2026-05-04 19:32 | 41.81411 | 117.31070 | 34937 ft | 511 kts | 175° |
| 2026-05-04 19:33 | 41.74361 | 117.32287 | 34938 ft | 512 kts | 175° |
| 2026-05-04 19:33 | 41.67290 | 117.33503 | 34935 ft | 512 kts | 175° |
| 2026-05-04 19:34 | 41.60216 | 117.34718 | 34922 ft | 513 kts | 175° |
| 2026-05-04 19:34 | 41.53144 | 117.35930 | 34937 ft | 513 kts | 175° |
| 2026-05-04 19:35 | 41.46061 | 117.37142 | 34933 ft | 513 kts | 175° |
| 2026-05-04 19:35 | 41.40172 | 117.38147 | 34918 ft | 513 kts | 175° |
| 2026-05-04 19:36 | 41.33097 | 117.39352 | 34926 ft | 513 kts | 175° |
| 2026-05-04 19:36 | 41.26015 | 117.40556 | 34930 ft | 513 kts | 175° |
| 2026-05-04 19:37 | 41.18937 | 117.41756 | 34922 ft | 513 kts | 175° |
| 2026-05-04 19:37 | 41.11858 | 117.42955 | 34930 ft | 513 kts | 175° |
| 2026-05-04 19:38 | 41.04765 | 117.43563 | 34929 ft | 509 kts | 187° |
| 2026-05-04 19:38 | 40.97880 | 117.41809 | 34926 ft | 501 kts | 203° |
| 2026-05-04 19:39 | 40.91464 | 117.38465 | 34938 ft | 499 kts | 205° |
| 2026-05-04 19:39 | 40.84993 | 117.35083 | 34931 ft | 500 kts | 205° |
| 2026-05-04 19:40 | 40.78496 | 117.31784 | 34922 ft | 501 kts | 204° |
| 2026-05-04 19:40 | 40.71983 | 117.28498 | 34933 ft | 501 kts | 204° |
| 2026-05-04 19:41 | 40.65442 | 117.25313 | 34922 ft | 502 kts | 203° |
| 2026-05-04 19:41 | 40.58863 | 117.22235 | 34942 ft | 502 kts | 202° |
| 2026-05-04 19:42 | 40.52267 | 117.19150 | 34924 ft | 503 kts | 203° |
| 2026-05-04 19:42 | 40.45671 | 117.16049 | 34931 ft | 503 kts | 202° |
| 2026-05-04 19:43 | 40.39127 | 117.12970 | 34934 ft | 503 kts | 202° |
| 2026-05-04 19:43 | 40.32533 | 117.09873 | 34923 ft | 504 kts | 202° |
| 2026-05-04 19:44 | 40.25933 | 117.06783 | 34924 ft | 504 kts | 202° |
| 2026-05-04 19:44 | 40.19333 | 117.03700 | 34930 ft | 504 kts | 202° |
| 2026-05-04 19:45 | 40.12729 | 117.00619 | 34925 ft | 504 kts | 202° |
| 2026-05-04 19:45 | 40.06122 | 116.97543 | 34925 ft | 505 kts | 202° |
| 2026-05-04 19:46 | 39.99499 | 116.94468 | 34921 ft | 505 kts | 202° |
| 2026-05-04 19:46 | 39.92866 | 116.91393 | 34921 ft | 506 kts | 202° |
| 2026-05-04 19:47 | 39.86227 | 116.88321 | 34920 ft | 507 kts | 202° |
| 2026-05-04 19:47 | 39.79518 | 116.85489 | 34916 ft | 508 kts | 196° |
| 2026-05-04 19:48 | 39.72520 | 116.84053 | 34921 ft | 510 kts | 188° |
| 2026-05-04 19:48 | 39.65469 | 116.82978 | 34909 ft | 510 kts | 188° |
| 2026-05-04 19:49 | 39.58425 | 116.81858 | 34903 ft | 510 kts | 189° |
| 2026-05-04 19:49 | 39.51383 | 116.80702 | 34903 ft | 510 kts | 189° |
| 2026-05-04 19:50 | 39.44342 | 116.79540 | 34903 ft | 510 kts | 189° |
| 2026-05-04 19:50 | 39.37340 | 116.78389 | 34904 ft | 510 kts | 188° |
| 2026-05-04 19:51 | 39.30291 | 116.77235 | 34905 ft | 511 kts | 188° |
| 2026-05-04 19:51 | 39.23234 | 116.76083 | 34904 ft | 511 kts | 188° |
| 2026-05-04 19:52 | 39.16180 | 116.74934 | 34897 ft | 511 kts | 188° |
| 2026-05-04 19:52 | 39.09114 | 116.73784 | 34901 ft | 512 kts | 188° |
| 2026-05-04 19:53 | 39.02045 | 116.72637 | 34901 ft | 512 kts | 188° |
| 2026-05-04 19:53 | 38.94972 | 116.71491 | 34906 ft | 512 kts | 188° |
| 2026-05-04 19:54 | 38.87903 | 116.70348 | 34906 ft | 512 kts | 188° |
| 2026-05-04 19:54 | 38.80824 | 116.69206 | 34906 ft | 513 kts | 188° |
| 2026-05-04 19:55 | 38.73744 | 116.68066 | 34907 ft | 513 kts | 188° |
| 2026-05-04 19:55 | 38.66670 | 116.66929 | 34917 ft | 512 kts | 188° |
| 2026-05-04 19:56 | 38.59587 | 116.65891 | 34916 ft | 513 kts | 186° |
| 2026-05-04 19:56 | 38.52519 | 116.65136 | 34917 ft | 513 kts | 185° |
| 2026-05-04 19:57 | 38.45408 | 116.64368 | 34921 ft | 513 kts | 186° |
| 2026-05-04 19:57 | 38.38303 | 116.63553 | 34920 ft | 513 kts | 186° |
| 2026-05-04 19:58 | 38.31184 | 116.63063 | 34914 ft | 513 kts | 178° |
| 2026-05-04 19:58 | 38.24122 | 116.64253 | 34929 ft | 512 kts | 166° |
| 2026-05-04 19:59 | 38.17292 | 116.66828 | 34936 ft | 512 kts | 162° |
| 2026-05-04 19:59 | 38.10465 | 116.69413 | 34930 ft | 512 kts | 163° |
| 2026-05-04 20:00 | 38.03635 | 116.71988 | 34922 ft | 512 kts | 162° |
| 2026-05-04 20:00 | 37.96813 | 116.74603 | 34939 ft | 512 kts | 162° |
| 2026-05-04 20:01 | 37.89990 | 116.77212 | 34945 ft | 512 kts | 162° |
| 2026-05-04 20:01 | 37.83162 | 116.79810 | 34941 ft | 512 kts | 162° |
| 2026-05-04 20:02 | 37.76379 | 116.82382 | 34940 ft | 512 kts | 162° |
| 2026-05-04 20:02 | 37.69551 | 116.84968 | 34942 ft | 512 kts | 163° |
| 2026-05-04 20:03 | 37.62720 | 116.87550 | 34956 ft | 512 kts | 163° |
| 2026-05-04 20:03 | 37.55895 | 116.90123 | 34953 ft | 512 kts | 163° |
| 2026-05-04 20:04 | 37.49062 | 116.92696 | 34954 ft | 512 kts | 163° |
| 2026-05-04 20:04 | 37.42245 | 116.95259 | 34958 ft | 511 kts | 163° |
| 2026-05-04 20:05 | 37.35437 | 116.97813 | 34953 ft | 511 kts | 163° |
| 2026-05-04 20:05 | 37.28642 | 117.00407 | 34963 ft | 510 kts | 160° |
| 2026-05-04 20:06 | 37.22011 | 117.03567 | 34970 ft | 509 kts | 159° |
| 2026-05-04 20:06 | 37.15384 | 117.06698 | 34968 ft | 509 kts | 160° |
| 2026-05-04 20:07 | 37.08736 | 117.09775 | 34968 ft | 509 kts | 160° |
| 2026-05-04 20:07 | 37.02102 | 117.12848 | 34978 ft | 509 kts | 160° |
| 2026-05-04 20:08 | 36.95508 | 117.15907 | 34977 ft | 508 kts | 160° |
| 2026-05-04 20:08 | 36.88999 | 117.18919 | 34989 ft | 508 kts | 161° |
| 2026-05-04 20:09 | 36.82196 | 117.21098 | 34995 ft | 506 kts | 173° |
| 2026-05-04 20:09 | 36.75203 | 117.21670 | 34985 ft | 503 kts | 182° |
| 2026-05-04 20:10 | 36.68203 | 117.21530 | 35004 ft | 502 kts | 183° |
| 2026-05-04 20:10 | 36.61217 | 117.21428 | 35009 ft | 502 kts | 182° |
| 2026-05-04 20:11 | 36.54232 | 117.21380 | 35015 ft | 502 kts | 182° |
| 2026-05-04 20:11 | 36.47260 | 117.21337 | 35030 ft | 500 kts | 182° |
| 2026-05-04 20:12 | 36.40317 | 117.22044 | 35043 ft | 503 kts | 172° |
| 2026-05-04 20:12 | 36.33540 | 117.24258 | 35052 ft | 504 kts | 164° |
| 2026-05-04 20:13 | 36.26892 | 117.26822 | 35050 ft | 503 kts | 165° |
| 2026-05-04 20:13 | 36.20199 | 117.29347 | 35055 ft | 503 kts | 165° |
| 2026-05-04 20:14 | 36.13496 | 117.31835 | 35061 ft | 502 kts | 165° |
| 2026-05-04 20:14 | 36.06803 | 117.34314 | 35051 ft | 502 kts | 165° |
| 2026-05-04 20:15 | 36.00100 | 117.36796 | 35062 ft | 502 kts | 165° |
| 2026-05-04 20:15 | 35.93411 | 117.39288 | 35056 ft | 502 kts | 165° |
| 2026-05-04 20:16 | 35.86729 | 117.41793 | 35060 ft | 502 kts | 165° |
| 2026-05-04 20:16 | 35.80039 | 117.44298 | 35052 ft | 502 kts | 165° |
| 2026-05-04 20:17 | 35.73357 | 117.46794 | 35062 ft | 502 kts | 165° |
| 2026-05-04 20:17 | 35.66676 | 117.49282 | 35073 ft | 502 kts | 165° |
| 2026-05-04 20:18 | 35.60031 | 117.51754 | 35069 ft | 502 kts | 165° |
| 2026-05-04 20:18 | 35.53351 | 117.54234 | 35075 ft | 502 kts | 165° |
| 2026-05-04 20:19 | 35.46660 | 117.56714 | 35070 ft | 502 kts | 165° |
| 2026-05-04 20:19 | 35.39977 | 117.59187 | 35074 ft | 502 kts | 165° |
| 2026-05-04 20:20 | 35.33292 | 117.61657 | 35079 ft | 502 kts | 165° |
| 2026-05-04 20:20 | 35.26611 | 117.64121 | 35081 ft | 501 kts | 166° |
| 2026-05-04 20:21 | 35.19931 | 117.66581 | 35087 ft | 501 kts | 166° |
| 2026-05-04 20:21 | 35.09910 | 117.70265 | 35087 ft | 501 kts | 166° |
| 2026-05-04 20:22 | 35.03267 | 117.72696 | 35086 ft | 501 kts | 166° |
| 2026-05-04 20:22 | 34.96583 | 117.75127 | 35089 ft | 501 kts | 166° |
| 2026-05-04 20:23 | 34.89898 | 117.77561 | 35088 ft | 502 kts | 166° |
| 2026-05-04 20:23 | 34.83210 | 117.79989 | 35074 ft | 502 kts | 166° |
| 2026-05-04 20:24 | 34.76512 | 117.82372 | 35083 ft | 501 kts | 166° |
| 2026-05-04 20:24 | 34.69822 | 117.84772 | 35086 ft | 501 kts | 166° |
| 2026-05-04 20:25 | 34.63140 | 117.87172 | 35086 ft | 501 kts | 166° |
| 2026-05-04 20:25 | 34.56451 | 117.89571 | 35082 ft | 501 kts | 166° |
| 2026-05-04 20:26 | 34.49774 | 117.91960 | 35081 ft | 500 kts | 166° |
| 2026-05-04 20:26 | 34.43145 | 117.94327 | 35076 ft | 500 kts | 166° |
| 2026-05-04 20:27 | 34.36471 | 117.96708 | 35071 ft | 500 kts | 166° |
| 2026-05-04 20:27 | 34.29810 | 117.99082 | 35068 ft | 499 kts | 167° |
| 2026-05-04 20:28 | 34.23164 | 118.01472 | 35080 ft | 498 kts | 166° |
| 2026-05-04 20:28 | 34.16542 | 118.03908 | 35079 ft | 497 kts | 166° |
| 2026-05-04 20:29 | 34.09919 | 118.06340 | 35085 ft | 497 kts | 166° |
| 2026-05-04 20:29 | 34.03310 | 118.08754 | 35076 ft | 496 kts | 167° |
| 2026-05-04 20:30 | 33.96717 | 118.11160 | 35078 ft | 495 kts | 167° |
| 2026-05-04 20:30 | 33.90137 | 118.13570 | 35083 ft | 494 kts | 167° |
| 2026-05-04 20:31 | 33.83596 | 118.16100 | 35080 ft | 496 kts | 161° |
| 2026-05-04 20:31 | 33.77468 | 118.19851 | 35076 ft | 501 kts | 150° |
| 2026-05-04 20:32 | 33.71736 | 118.24630 | 35087 ft | 502 kts | 148° |
| 2026-05-04 20:32 | 33.66021 | 118.29453 | 35086 ft | 502 kts | 148° |
| 2026-05-04 20:33 | 33.60275 | 118.34242 | 35086 ft | 503 kts | 148° |
| 2026-05-04 20:33 | 33.55491 | 118.38199 | 35093 ft | 503 kts | 149° |
| 2026-05-04 20:34 | 33.49720 | 118.42962 | 35080 ft | 503 kts | 149° |
| 2026-05-04 20:34 | 33.43951 | 118.47718 | 35087 ft | 504 kts | 149° |
| 2026-05-04 20:35 | 33.38170 | 118.52478 | 35097 ft | 505 kts | 149° |
| 2026-05-04 20:35 | 33.32382 | 118.57238 | 35093 ft | 505 kts | 149° |
| 2026-05-04 20:36 | 33.26584 | 118.62000 | 35096 ft | 506 kts | 149° |
| 2026-05-04 20:36 | 33.20779 | 118.66758 | 35084 ft | 506 kts | 149° |
| 2026-05-04 20:37 | 33.15022 | 118.71519 | 35095 ft | 507 kts | 149° |
| 2026-05-04 20:37 | 33.09237 | 118.76331 | 35100 ft | 507 kts | 149° |
| 2026-05-04 20:38 | 33.03446 | 118.81136 | 35101 ft | 508 kts | 149° |
| 2026-05-04 20:38 | 32.97646 | 118.85936 | 35105 ft | 508 kts | 149° |
| 2026-05-04 20:39 | 32.91840 | 118.90734 | 35111 ft | 508 kts | 149° |
| 2026-05-04 20:39 | 32.86029 | 118.95529 | 35104 ft | 508 kts | 149° |
| 2026-05-04 20:40 | 32.80227 | 119.00325 | 35102 ft | 508 kts | 149° |
| 2026-05-04 20:40 | 32.74438 | 119.05132 | 35110 ft | 508 kts | 149° |
| 2026-05-04 20:41 | 32.68648 | 119.09938 | 35109 ft | 508 kts | 149° |
| 2026-05-04 20:41 | 32.62856 | 119.14734 | 35108 ft | 507 kts | 150° |
| 2026-05-04 20:42 | 32.57071 | 119.19515 | 35115 ft | 507 kts | 150° |
| 2026-05-04 20:42 | 32.51276 | 119.24296 | 35113 ft | 507 kts | 150° |
| 2026-05-04 20:43 | 32.45482 | 119.29068 | 35112 ft | 507 kts | 150° |
| 2026-05-04 20:43 | 32.39722 | 119.33805 | 35087 ft | 508 kts | 150° |
| 2026-05-04 20:44 | 32.36805 | 119.36200 | 34780 ft | 512 kts | 150° |
| 2026-05-04 20:44 | 32.33891 | 119.38592 | 34404 ft | 507 kts | 150° |
| 2026-05-04 20:44 | 32.31014 | 119.40958 | 34058 ft | 501 kts | 150° |
| 2026-05-04 20:44 | 32.28171 | 119.43292 | 33596 ft | 495 kts | 150° |
| 2026-05-04 20:45 | 32.25348 | 119.45605 | 33068 ft | 491 kts | 150° |
| 2026-05-04 20:45 | 32.22552 | 119.47892 | 32553 ft | 486 kts | 150° |
| 2026-05-04 20:45 | 32.19786 | 119.50153 | 32053 ft | 482 kts | 150° |
| 2026-05-04 20:45 | 32.17036 | 119.52399 | 31553 ft | 479 kts | 149° |
| 2026-05-04 20:46 | 32.14306 | 119.54627 | 31080 ft | 475 kts | 149° |
| 2026-05-04 20:46 | 32.11594 | 119.56839 | 30592 ft | 479 kts | 149° |
| 2026-05-04 20:46 | 32.08809 | 119.59104 | 30162 ft | 491 kts | 149° |
| 2026-05-04 20:46 | 32.05998 | 119.61395 | 29621 ft | 491 kts | 148° |
| 2026-05-04 20:47 | 32.03193 | 119.63685 | 29046 ft | 489 kts | 149° |
| 2026-05-04 20:47 | 32.00403 | 119.65958 | 28503 ft | 487 kts | 149° |
| 2026-05-04 20:47 | 31.97639 | 119.68249 | 27965 ft | 486 kts | 146° |
| 2026-05-04 20:47 | 31.95069 | 119.70847 | 27441 ft | 488 kts | 139° |
| 2026-05-04 20:48 | 31.92739 | 119.73751 | 26940 ft | 488 kts | 134° |
| 2026-05-04 20:48 | 31.90663 | 119.76903 | 26434 ft | 487 kts | 127° |
| 2026-05-04 20:48 | 31.88779 | 119.80207 | 25946 ft | 484 kts | 126° |
| 2026-05-04 20:48 | 31.86929 | 119.83484 | 25451 ft | 478 kts | 126° |
| 2026-05-04 20:49 | 31.85093 | 119.86724 | 24981 ft | 473 kts | 126° |
| 2026-05-04 20:49 | 31.83266 | 119.89923 | 24496 ft | 468 kts | 126° |
| 2026-05-04 20:49 | 31.81454 | 119.93077 | 24036 ft | 463 kts | 126° |
| 2026-05-04 20:49 | 31.79655 | 119.96191 | 23575 ft | 458 kts | 126° |
| 2026-05-04 20:50 | 31.77873 | 119.99270 | 23039 ft | 454 kts | 126° |
| 2026-05-04 20:50 | 31.76110 | 120.02311 | 22653 ft | 446 kts | 126° |
| 2026-05-04 20:50 | 31.74402 | 120.05257 | 22376 ft | 438 kts | 126° |
| 2026-05-04 20:50 | 31.72701 | 120.08188 | 22098 ft | 429 kts | 126° |
| 2026-05-04 20:51 | 31.71035 | 120.11056 | 21836 ft | 421 kts | 126° |
| 2026-05-04 20:51 | 31.69403 | 120.13864 | 21554 ft | 413 kts | 126° |
| 2026-05-04 20:51 | 31.67796 | 120.16629 | 21264 ft | 406 kts | 126° |
| 2026-05-04 20:51 | 31.66216 | 120.19345 | 21018 ft | 401 kts | 126° |
| 2026-05-04 20:52 | 31.64647 | 120.22039 | 20755 ft | 400 kts | 127° |
| 2026-05-04 20:52 | 31.63080 | 120.24730 | 20507 ft | 399 kts | 127° |
| 2026-05-04 20:52 | 31.61514 | 120.27413 | 20261 ft | 398 kts | 127° |
| 2026-05-04 20:52 | 31.59972 | 120.30103 | 20023 ft | 398 kts | 123° |
| 2026-05-04 20:53 | 31.58655 | 120.32957 | 19780 ft | 398 kts | 116° |
| 2026-05-04 20:53 | 31.57618 | 120.35976 | 19542 ft | 398 kts | 110° |
| 2026-05-04 20:53 | 31.56715 | 120.39042 | 19311 ft | 398 kts | 110° |
| 2026-05-04 20:53 | 31.55821 | 120.42110 | 19081 ft | 397 kts | 110° |
| 2026-05-04 20:54 | 31.54928 | 120.45169 | 18842 ft | 396 kts | 110° |
| 2026-05-04 20:54 | 31.54033 | 120.48219 | 18606 ft | 396 kts | 110° |
| 2026-05-04 20:54 | 31.53134 | 120.51266 | 18395 ft | 395 kts | 110° |
| 2026-05-04 20:54 | 31.52235 | 120.54297 | 18140 ft | 394 kts | 110° |
| 2026-05-04 20:55 | 31.51334 | 120.57328 | 17794 ft | 394 kts | 110° |
| 2026-05-04 20:55 | 31.50435 | 120.60342 | 17405 ft | 390 kts | 110° |
| 2026-05-04 20:55 | 31.49545 | 120.63326 | 17009 ft | 386 kts | 110° |
| 2026-05-04 20:55 | 31.48663 | 120.66276 | 16630 ft | 381 kts | 110° |
| 2026-05-04 20:56 | 31.47801 | 120.69157 | 16255 ft | 377 kts | 110° |
| 2026-05-04 20:56 | 31.46928 | 120.72072 | 15870 ft | 373 kts | 110° |
| 2026-05-04 20:56 | 31.46084 | 120.74888 | 15513 ft | 369 kts | 110° |
| 2026-05-04 20:56 | 31.45239 | 120.77703 | 15141 ft | 365 kts | 110° |
| 2026-05-04 20:57 | 31.44402 | 120.80492 | 14765 ft | 361 kts | 110° |
| 2026-05-04 20:57 | 31.43573 | 120.83251 | 14416 ft | 357 kts | 110° |
| 2026-05-04 20:57 | 31.42752 | 120.85980 | 14068 ft | 354 kts | 110° |
| 2026-05-04 20:57 | 31.41939 | 120.88682 | 13704 ft | 350 kts | 110° |
| 2026-05-04 20:58 | 31.41133 | 120.91355 | 13302 ft | 347 kts | 110° |
| 2026-05-04 20:58 | 31.40335 | 120.94002 | 12915 ft | 343 kts | 110° |
| 2026-05-04 20:58 | 31.39545 | 120.96622 | 12529 ft | 340 kts | 110° |
| 2026-05-04 20:58 | 31.38762 | 120.99214 | 12144 ft | 336 kts | 110° |
| 2026-05-04 20:59 | 31.37988 | 121.01780 | 11771 ft | 333 kts | 110° |
| 2026-05-04 20:59 | 31.37220 | 121.04321 | 11400 ft | 330 kts | 109° |
| 2026-05-04 20:59 | 31.36457 | 121.06840 | 11033 ft | 326 kts | 109° |
| 2026-05-04 20:59 | 31.35700 | 121.09333 | 10668 ft | 323 kts | 109° |
| 2026-05-04 21:00 | 31.35050 | 121.11817 | 10288 ft | 317 kts | 100° |
| 2026-05-04 21:00 | 31.34792 | 121.14364 | 9943 ft | 313 kts | 94° |
| 2026-05-04 21:00 | 31.34617 | 121.16875 | 9667 ft | 306 kts | 94° |
| 2026-05-04 21:00 | 31.34441 | 121.19319 | 9449 ft | 297 kts | 94° |
| 2026-05-04 21:01 | 31.34261 | 121.21694 | 9245 ft | 288 kts | 94° |
| 2026-05-04 21:01 | 31.34079 | 121.24000 | 8984 ft | 282 kts | 95° |
| 2026-05-04 21:01 | 31.33898 | 121.26225 | 8713 ft | 276 kts | 95° |
| 2026-05-04 21:01 | 31.33716 | 121.28434 | 8441 ft | 269 kts | 95° |
| 2026-05-04 21:02 | 31.33536 | 121.30583 | 8173 ft | 263 kts | 95° |
| 2026-05-04 21:02 | 31.33360 | 121.32683 | 7909 ft | 256 kts | 95° |
| 2026-05-04 21:02 | 31.33186 | 121.34736 | 7642 ft | 252 kts | 95° |
| 2026-05-04 21:02 | 31.33013 | 121.36769 | 7387 ft | 250 kts | 95° |
| 2026-05-04 21:03 | 31.32842 | 121.38786 | 7145 ft | 248 kts | 95° |
| 2026-05-04 21:03 | 31.32672 | 121.40779 | 6890 ft | 244 kts | 95° |
| 2026-05-04 21:03 | 31.32506 | 121.42720 | 6623 ft | 236 kts | 95° |
| 2026-05-04 21:03 | 31.32344 | 121.44613 | 6364 ft | 233 kts | 95° |
| 2026-05-04 21:04 | 31.32183 | 121.46487 | 6105 ft | 231 kts | 95° |
| 2026-05-04 21:04 | 31.32021 | 121.48364 | 5851 ft | 232 kts | 95° |
| 2026-05-04 21:04 | 31.31877 | 121.50223 | 5686 ft | 227 kts | 94° |
| 2026-05-04 21:04 | 31.31761 | 121.52058 | 5398 ft | 225 kts | 94° |
| 2026-05-04 21:05 | 31.31653 | 121.53880 | 5016 ft | 224 kts | 94° |
| 2026-05-04 21:05 | 31.31554 | 121.55694 | 4652 ft | 223 kts | 94° |
| 2026-05-04 21:05 | 31.31470 | 121.57486 | 4350 ft | 218 kts | 94° |
| 2026-05-04 21:05 | 31.31404 | 121.59221 | 4115 ft | 209 kts | 94° |
| 2026-05-04 21:06 | 31.31354 | 121.60888 | 3850 ft | 201 kts | 94° |
| 2026-05-04 21:06 | 31.31316 | 121.62492 | 3597 ft | 195 kts | 94° |
| 2026-05-04 21:06 | 31.31285 | 121.64079 | 3388 ft | 195 kts | 94° |
| 2026-05-04 21:06 | 31.31257 | 121.65669 | 3180 ft | 196 kts | 94° |
| 2026-05-04 21:07 | 31.31235 | 121.67244 | 2971 ft | 196 kts | 94° |
| 2026-05-04 21:07 | 31.31217 | 121.68789 | 2740 ft | 192 kts | 95° |
| 2026-05-04 21:07 | 31.30961 | 121.70286 | 2565 ft | 181 kts | 114° |
| 2026-05-04 21:07 | 31.30510 | 121.71636 | 2593 ft | 177 kts | 119° |
| 2026-05-04 21:08 | 31.29727 | 121.72623 | 2490 ft | 161 kts | 160° |
| 2026-05-04 21:08 | 31.28665 | 121.73031 | 2504 ft | 162 kts | 159° |
| 2026-05-04 21:08 | 31.27664 | 121.73605 | 2521 ft | 157 kts | 156° |
| 2026-05-04 21:08 | 31.26686 | 121.74062 | 2492 ft | 147 kts | 162° |
| 2026-05-04 21:09 | 31.25724 | 121.74442 | 2480 ft | 146 kts | 164° |
| 2026-05-04 21:09 | 31.24748 | 121.74817 | 2287 ft | 149 kts | 164° |
| 2026-05-04 21:09 | 31.23765 | 121.75190 | 1896 ft | 147 kts | 163° |
| 2026-05-04 21:09 | 31.22811 | 121.75553 | 1516 ft | 140 kts | 163° |
| 2026-05-04 21:10 | 31.21909 | 121.75894 | 1362 ft | 138 kts | 164° |
| 2026-05-04 21:10 | 31.20986 | 121.76243 | 1168 ft | 141 kts | 163° |
| 2026-05-04 21:10 | 31.20052 | 121.76598 | 989 ft | 142 kts | 163° |
| 2026-05-04 21:10 | 31.19118 | 121.76953 | 793 ft | 141 kts | 163° |
| 2026-05-04 21:11 | 31.18186 | 121.77304 | 622 ft | 141 kts | 163° |
| 2026-05-04 21:11 | 31.17238 | 121.77658 | 436 ft | 145 kts | 163° |
| 2026-05-04 21:11 | 31.16280 | 121.78029 | 243 ft | 144 kts | 163° |
| 2026-05-04 21:11 | 31.15322 | 121.78395 | 51 ft | 147 kts | 163° |
| 2026-05-04 21:12 | 31.14413 | 121.78736 | 28 ft | 123 kts | 161° |
| 2026-05-04 21:12 | 31.13780 | 121.78978 | 28 ft | 69 kts | 162° |
| 2026-05-04 21:12 | 31.13506 | 121.79030 | 28 ft | 26 kts | 189° |
| 2026-05-04 21:12 | 31.13374 | 121.78993 | 28 ft | 15 kts | 218° |
| 2026-05-04 21:13 | 31.13401 | 121.78912 | 28 ft | 13 kts | 336° |
| 2026-05-04 21:13 | 31.13484 | 121.78880 | 28 ft | 13 kts | 342° |
| 2026-05-04 21:13 | 31.13568 | 121.78849 | 27 ft | 13 kts | 342° |
| 2026-05-04 21:13 | 31.13650 | 121.78816 | 27 ft | 13 kts | 329° |
| 2026-05-04 21:14 | 31.13672 | 121.78741 | 27 ft | 8 kts | 277° |
| 2026-05-04 21:14 | 31.13678 | 121.78696 | 27 ft | 5 kts | 272° |
| 2026-05-04 21:14 | 31.13673 | 121.78657 | 27 ft | 5 kts | 257° |
| 2026-05-04 21:14 | 31.13662 | 121.78618 | 26 ft | 5 kts | 251° |
| 2026-05-04 21:15 | 31.13653 | 121.78587 | 27 ft | 0 kts | 251° |